{
  "fields": [{"id":"_id","type":"int"},{"id":"Station Number:","type":"text"},{"id":"Station Name:","type":"text"},{"id":"Station Description:","type":"text"},{"id":"LATITUDE_deg","type":"numeric"},{"id":"LONGITUDE_deg","type":"numeric"},{"id":"Rain Gauge:","type":"text"},{"id":"Temperature / RH Probe:","type":"text"},{"id":"Soil Moisture Content:","type":"text"},{"id":"Date Time, GMT-06:00","type":"timestamp"},{"id":"Rain, mm","type":"numeric"},{"id":"Temp, °C","type":"numeric"},{"id":"RH, %","type":"numeric"},{"id":"Water Content, m³/m³","type":"numeric"},{"id":"DewPt, °C","type":"numeric"}],
  "records": [
    [1,"AB07CD0350","WETLAND SAL01","SALINE (FEN)",56.573904,-111.277774,"HOBO Rain Gauge Data Logger - RG3","HOBO Temperature/RH Smart Sensor (S-THB-M002)","Soil Moisture Smart Sensor - EC5 (S-SMC-M005)","2018-07-20T13:00:01",0,22.298,57.0,0.6424,13.4],
    [2,"AB07CD0350","WETLAND SAL01","SALINE (FEN)",56.573904,-111.277774,"HOBO Rain Gauge Data Logger - RG3","HOBO Temperature/RH Smart Sensor (S-THB-M002)","Soil Moisture Smart Sensor - EC5 (S-SMC-M005)","2018-07-20T14:00:01",0.0,22.705,55.5,0.6431,13.4],
    [3,"AB07CD0350","WETLAND SAL01","SALINE (FEN)",56.573904,-111.277774,"HOBO Rain Gauge Data Logger - RG3","HOBO Temperature/RH Smart Sensor (S-THB-M002)","Soil Moisture Smart Sensor - EC5 (S-SMC-M005)","2018-07-20T15:00:01",0.0,22.968,55.3,0.6431,13.5],
    [4,"AB07CD0350","WETLAND SAL01","SALINE (FEN)",56.573904,-111.277774,"HOBO Rain Gauge Data Logger - RG3","HOBO Temperature/RH Smart Sensor (S-THB-M002)","Soil Moisture Smart Sensor - EC5 (S-SMC-M005)","2018-07-20T16:00:01",0.0,23.112,54.4,0.6431,13.4],
    [5,"AB07CD0350","WETLAND SAL01","SALINE (FEN)",56.573904,-111.277774,"HOBO Rain Gauge Data Logger - RG3","HOBO Temperature/RH Smart Sensor (S-THB-M002)","Soil Moisture Smart Sensor - EC5 (S-SMC-M005)","2018-07-20T17:00:01",0.0,22.944,55.3,0.6431,13.5],
    [6,"AB07CD0350","WETLAND SAL01","SALINE (FEN)",56.573904,-111.277774,"HOBO Rain Gauge Data Logger - RG3","HOBO Temperature/RH Smart Sensor (S-THB-M002)","Soil Moisture Smart Sensor - EC5 (S-SMC-M005)","2018-07-20T18:00:01",0.0,23.809,56.3,0.6431,14.6],
    [7,"AB07CD0350","WETLAND SAL01","SALINE (FEN)",56.573904,-111.277774,"HOBO Rain Gauge Data Logger - RG3","HOBO Temperature/RH Smart Sensor (S-THB-M002)","Soil Moisture Smart Sensor - EC5 (S-SMC-M005)","2018-07-20T19:00:01",0.0,22.274,56.4,0.6438,13.2],
    [8,"AB07CD0350","WETLAND SAL01","SALINE (FEN)",56.573904,-111.277774,"HOBO Rain Gauge Data Logger - RG3","HOBO Temperature/RH Smart Sensor (S-THB-M002)","Soil Moisture Smart Sensor - EC5 (S-SMC-M005)","2018-07-20T20:00:01",0.0,21.366,59.0,0.6431,13.0],
    [9,"AB07CD0350","WETLAND SAL01","SALINE (FEN)",56.573904,-111.277774,"HOBO Rain Gauge Data Logger - RG3","HOBO Temperature/RH Smart Sensor (S-THB-M002)","Soil Moisture Smart Sensor - EC5 (S-SMC-M005)","2018-07-20T21:00:01",0.0,19.841,65.5,0.6438,13.2],
    [10,"AB07CD0350","WETLAND SAL01","SALINE (FEN)",56.573904,-111.277774,"HOBO Rain Gauge Data Logger - RG3","HOBO Temperature/RH Smart Sensor (S-THB-M002)","Soil Moisture Smart Sensor - EC5 (S-SMC-M005)","2018-07-20T22:00:01",0.0,19.817,69.4,0.6438,14.1],
    [11,"AB07CD0350","WETLAND SAL01","SALINE (FEN)",56.573904,-111.277774,"HOBO Rain Gauge Data Logger - RG3","HOBO Temperature/RH Smart Sensor (S-THB-M002)","Soil Moisture Smart Sensor - EC5 (S-SMC-M005)","2018-07-20T23:00:01",0.0,17.558,72.5,0.6438,12.6],
    [12,"AB07CD0350","WETLAND SAL01","SALINE (FEN)",56.573904,-111.277774,"HOBO Rain Gauge Data Logger - RG3","HOBO Temperature/RH Smart Sensor (S-THB-M002)","Soil Moisture Smart Sensor - EC5 (S-SMC-M005)","2018-07-21T00:00:01",0.8,16.63,80.6,0.6438,13.3],
    [13,"AB07CD0350","WETLAND SAL01","SALINE (FEN)",56.573904,-111.277774,"HOBO Rain Gauge Data Logger - RG3","HOBO Temperature/RH Smart Sensor (S-THB-M002)","Soil Moisture Smart Sensor - EC5 (S-SMC-M005)","2018-07-21T01:00:01",1.0,15.748,88.7,0.6438,13.9],
    [14,"AB07CD0350","WETLAND SAL01","SALINE (FEN)",56.573904,-111.277774,"HOBO Rain Gauge Data Logger - RG3","HOBO Temperature/RH Smart Sensor (S-THB-M002)","Soil Moisture Smart Sensor - EC5 (S-SMC-M005)","2018-07-21T02:00:01",0.2,15.342,89.9,0.6438,13.7],
    [15,"AB07CD0350","WETLAND SAL01","SALINE (FEN)",56.573904,-111.277774,"HOBO Rain Gauge Data Logger - RG3","HOBO Temperature/RH Smart Sensor (S-THB-M002)","Soil Moisture Smart Sensor - EC5 (S-SMC-M005)","2018-07-21T03:00:01",2.0,14.96,93.7,0.6438,14.0],
    [16,"AB07CD0350","WETLAND SAL01","SALINE (FEN)",56.573904,-111.277774,"HOBO Rain Gauge Data Logger - RG3","HOBO Temperature/RH Smart Sensor (S-THB-M002)","Soil Moisture Smart Sensor - EC5 (S-SMC-M005)","2018-07-21T04:00:01",1.4,14.84,95.8,0.6438,14.2],
    [17,"AB07CD0350","WETLAND SAL01","SALINE (FEN)",56.573904,-111.277774,"HOBO Rain Gauge Data Logger - RG3","HOBO Temperature/RH Smart Sensor (S-THB-M002)","Soil Moisture Smart Sensor - EC5 (S-SMC-M005)","2018-07-21T05:00:01",0.0,13.762,95.6,0.6438,13.1],
    [18,"AB07CD0350","WETLAND SAL01","SALINE (FEN)",56.573904,-111.277774,"HOBO Rain Gauge Data Logger - RG3","HOBO Temperature/RH Smart Sensor (S-THB-M002)","Soil Moisture Smart Sensor - EC5 (S-SMC-M005)","2018-07-21T06:00:01",0.0,14.002,96.8,0.6438,13.5],
    [19,"AB07CD0350","WETLAND SAL01","SALINE (FEN)",56.573904,-111.277774,"HOBO Rain Gauge Data Logger - RG3","HOBO Temperature/RH Smart Sensor (S-THB-M002)","Soil Moisture Smart Sensor - EC5 (S-SMC-M005)","2018-07-21T07:00:01",0.0,14.505,97.4,0.6438,14.1],
    [20,"AB07CD0350","WETLAND SAL01","SALINE (FEN)",56.573904,-111.277774,"HOBO Rain Gauge Data Logger - RG3","HOBO Temperature/RH Smart Sensor (S-THB-M002)","Soil Moisture Smart Sensor - EC5 (S-SMC-M005)","2018-07-21T08:00:01",0.0,15.676,96.2,0.6445,15.1],
    [21,"AB07CD0350","WETLAND SAL01","SALINE (FEN)",56.573904,-111.277774,"HOBO Rain Gauge Data Logger - RG3","HOBO Temperature/RH Smart Sensor (S-THB-M002)","Soil Moisture Smart Sensor - EC5 (S-SMC-M005)","2018-07-21T09:00:01",0.0,16.511,93.0,0.6438,15.4],
    [22,"AB07CD0350","WETLAND SAL01","SALINE (FEN)",56.573904,-111.277774,"HOBO Rain Gauge Data Logger - RG3","HOBO Temperature/RH Smart Sensor (S-THB-M002)","Soil Moisture Smart Sensor - EC5 (S-SMC-M005)","2018-07-21T10:00:01",0.0,18.39,87.8,0.6445,16.4],
    [23,"AB07CD0350","WETLAND SAL01","SALINE (FEN)",56.573904,-111.277774,"HOBO Rain Gauge Data Logger - RG3","HOBO Temperature/RH Smart Sensor (S-THB-M002)","Soil Moisture Smart Sensor - EC5 (S-SMC-M005)","2018-07-21T11:00:01",0.0,17.701,84.4,0.6445,15.1],
    [24,"AB07CD0350","WETLAND SAL01","SALINE (FEN)",56.573904,-111.277774,"HOBO Rain Gauge Data Logger - RG3","HOBO Temperature/RH Smart Sensor (S-THB-M002)","Soil Moisture Smart Sensor - EC5 (S-SMC-M005)","2018-07-21T12:00:01",0.0,18.129,82.5,0.6438,15.1],
    [25,"AB07CD0350","WETLAND SAL01","SALINE (FEN)",56.573904,-111.277774,"HOBO Rain Gauge Data Logger - RG3","HOBO Temperature/RH Smart Sensor (S-THB-M002)","Soil Moisture Smart Sensor - EC5 (S-SMC-M005)","2018-07-21T13:00:01",0.0,17.368,83.1,0.6438,14.5],
    [26,"AB07CD0350","WETLAND SAL01","SALINE (FEN)",56.573904,-111.277774,"HOBO Rain Gauge Data Logger - RG3","HOBO Temperature/RH Smart Sensor (S-THB-M002)","Soil Moisture Smart Sensor - EC5 (S-SMC-M005)","2018-07-21T14:00:01",10.0,14.098,93.6,0.6453,13.1],
    [27,"AB07CD0350","WETLAND SAL01","SALINE (FEN)",56.573904,-111.277774,"HOBO Rain Gauge Data Logger - RG3","HOBO Temperature/RH Smart Sensor (S-THB-M002)","Soil Moisture Smart Sensor - EC5 (S-SMC-M005)","2018-07-21T15:00:01",5.8,13.618,96.2,0.6453,13.0],
    [28,"AB07CD0350","WETLAND SAL01","SALINE (FEN)",56.573904,-111.277774,"HOBO Rain Gauge Data Logger - RG3","HOBO Temperature/RH Smart Sensor (S-THB-M002)","Soil Moisture Smart Sensor - EC5 (S-SMC-M005)","2018-07-21T16:00:01",1.2,12.944,96.1,0.6453,12.4],
    [29,"AB07CD0350","WETLAND SAL01","SALINE (FEN)",56.573904,-111.277774,"HOBO Rain Gauge Data Logger - RG3","HOBO Temperature/RH Smart Sensor (S-THB-M002)","Soil Moisture Smart Sensor - EC5 (S-SMC-M005)","2018-07-21T17:00:01",0.4,13.954,96.7,0.6453,13.5],
    [30,"AB07CD0350","WETLAND SAL01","SALINE (FEN)",56.573904,-111.277774,"HOBO Rain Gauge Data Logger - RG3","HOBO Temperature/RH Smart Sensor (S-THB-M002)","Soil Moisture Smart Sensor - EC5 (S-SMC-M005)","2018-07-21T18:00:01",0.0,14.194,94.9,0.646,13.4],
    [31,"AB07CD0350","WETLAND SAL01","SALINE (FEN)",56.573904,-111.277774,"HOBO Rain Gauge Data Logger - RG3","HOBO Temperature/RH Smart Sensor (S-THB-M002)","Soil Moisture Smart Sensor - EC5 (S-SMC-M005)","2018-07-21T19:00:01",0.0,14.002,91.2,0.646,12.6],
    [32,"AB07CD0350","WETLAND SAL01","SALINE (FEN)",56.573904,-111.277774,"HOBO Rain Gauge Data Logger - RG3","HOBO Temperature/RH Smart Sensor (S-THB-M002)","Soil Moisture Smart Sensor - EC5 (S-SMC-M005)","2018-07-21T20:00:01",0.2,13.738,92.0,0.6453,12.5],
    [33,"AB07CD0350","WETLAND SAL01","SALINE (FEN)",56.573904,-111.277774,"HOBO Rain Gauge Data Logger - RG3","HOBO Temperature/RH Smart Sensor (S-THB-M002)","Soil Moisture Smart Sensor - EC5 (S-SMC-M005)","2018-07-21T21:00:01",3.2,12.654,94.4,0.646,11.8],
    [34,"AB07CD0350","WETLAND SAL01","SALINE (FEN)",56.573904,-111.277774,"HOBO Rain Gauge Data Logger - RG3","HOBO Temperature/RH Smart Sensor (S-THB-M002)","Soil Moisture Smart Sensor - EC5 (S-SMC-M005)","2018-07-21T22:00:01",3.0,12.703,96.1,0.646,12.1],
    [35,"AB07CD0350","WETLAND SAL01","SALINE (FEN)",56.573904,-111.277774,"HOBO Rain Gauge Data Logger - RG3","HOBO Temperature/RH Smart Sensor (S-THB-M002)","Soil Moisture Smart Sensor - EC5 (S-SMC-M005)","2018-07-21T23:00:01",4.6,13.257,96.3,0.646,12.7],
    [36,"AB07CD0350","WETLAND SAL01","SALINE (FEN)",56.573904,-111.277774,"HOBO Rain Gauge Data Logger - RG3","HOBO Temperature/RH Smart Sensor (S-THB-M002)","Soil Moisture Smart Sensor - EC5 (S-SMC-M005)","2018-07-22T00:00:01",1.4,13.546,96.2,0.646,13.0],
    [37,"AB07CD0350","WETLAND SAL01","SALINE (FEN)",56.573904,-111.277774,"HOBO Rain Gauge Data Logger - RG3","HOBO Temperature/RH Smart Sensor (S-THB-M002)","Soil Moisture Smart Sensor - EC5 (S-SMC-M005)","2018-07-22T01:00:01",4.2,13.449,97.8,0.646,13.1],
    [38,"AB07CD0350","WETLAND SAL01","SALINE (FEN)",56.573904,-111.277774,"HOBO Rain Gauge Data Logger - RG3","HOBO Temperature/RH Smart Sensor (S-THB-M002)","Soil Moisture Smart Sensor - EC5 (S-SMC-M005)","2018-07-22T02:00:01",0.2,12.558,97.7,0.646,12.2],
    [39,"AB07CD0350","WETLAND SAL01","SALINE (FEN)",56.573904,-111.277774,"HOBO Rain Gauge Data Logger - RG3","HOBO Temperature/RH Smart Sensor (S-THB-M002)","Soil Moisture Smart Sensor - EC5 (S-SMC-M005)","2018-07-22T03:00:01",0.0,12.413,97.2,0.646,12.0],
    [40,"AB07CD0350","WETLAND SAL01","SALINE (FEN)",56.573904,-111.277774,"HOBO Rain Gauge Data Logger - RG3","HOBO Temperature/RH Smart Sensor (S-THB-M002)","Soil Moisture Smart Sensor - EC5 (S-SMC-M005)","2018-07-22T04:00:01",0.0,11.977,97.5,0.646,11.6],
    [41,"AB07CD0350","WETLAND SAL01","SALINE (FEN)",56.573904,-111.277774,"HOBO Rain Gauge Data Logger - RG3","HOBO Temperature/RH Smart Sensor (S-THB-M002)","Soil Moisture Smart Sensor - EC5 (S-SMC-M005)","2018-07-22T05:00:01",0.0,11.856,97.5,0.646,11.5],
    [42,"AB07CD0350","WETLAND SAL01","SALINE (FEN)",56.573904,-111.277774,"HOBO Rain Gauge Data Logger - RG3","HOBO Temperature/RH Smart Sensor (S-THB-M002)","Soil Moisture Smart Sensor - EC5 (S-SMC-M005)","2018-07-22T06:00:01",0.0,12.05,97.5,0.646,11.7],
    [43,"AB07CD0350","WETLAND SAL01","SALINE (FEN)",56.573904,-111.277774,"HOBO Rain Gauge Data Logger - RG3","HOBO Temperature/RH Smart Sensor (S-THB-M002)","Soil Moisture Smart Sensor - EC5 (S-SMC-M005)","2018-07-22T07:00:01",0.0,12.509,97.3,0.646,12.1],
    [44,"AB07CD0350","WETLAND SAL01","SALINE (FEN)",56.573904,-111.277774,"HOBO Rain Gauge Data Logger - RG3","HOBO Temperature/RH Smart Sensor (S-THB-M002)","Soil Moisture Smart Sensor - EC5 (S-SMC-M005)","2018-07-22T08:00:01",0.0,12.944,96.2,0.646,12.4],
    [45,"AB07CD0350","WETLAND SAL01","SALINE (FEN)",56.573904,-111.277774,"HOBO Rain Gauge Data Logger - RG3","HOBO Temperature/RH Smart Sensor (S-THB-M002)","Soil Moisture Smart Sensor - EC5 (S-SMC-M005)","2018-07-22T09:00:01",0.0,13.666,94.4,0.646,12.8],
    [46,"AB07CD0350","WETLAND SAL01","SALINE (FEN)",56.573904,-111.277774,"HOBO Rain Gauge Data Logger - RG3","HOBO Temperature/RH Smart Sensor (S-THB-M002)","Soil Moisture Smart Sensor - EC5 (S-SMC-M005)","2018-07-22T10:00:01",0.0,13.04,93.5,0.646,12.0],
    [47,"AB07CD0350","WETLAND SAL01","SALINE (FEN)",56.573904,-111.277774,"HOBO Rain Gauge Data Logger - RG3","HOBO Temperature/RH Smart Sensor (S-THB-M002)","Soil Moisture Smart Sensor - EC5 (S-SMC-M005)","2018-07-22T11:00:01",0.0,12.944,91.7,0.646,11.6],
    [48,"AB07CD0350","WETLAND SAL01","SALINE (FEN)",56.573904,-111.277774,"HOBO Rain Gauge Data Logger - RG3","HOBO Temperature/RH Smart Sensor (S-THB-M002)","Soil Moisture Smart Sensor - EC5 (S-SMC-M005)","2018-07-22T12:00:01",0.0,12.678,91.2,0.646,11.3],
    [49,"AB07CD0350","WETLAND SAL01","SALINE (FEN)",56.573904,-111.277774,"HOBO Rain Gauge Data Logger - RG3","HOBO Temperature/RH Smart Sensor (S-THB-M002)","Soil Moisture Smart Sensor - EC5 (S-SMC-M005)","2018-07-22T13:00:01",0.6,12.243,95.0,0.646,11.5],
    [50,"AB07CD0350","WETLAND SAL01","SALINE (FEN)",56.573904,-111.277774,"HOBO Rain Gauge Data Logger - RG3","HOBO Temperature/RH Smart Sensor (S-THB-M002)","Soil Moisture Smart Sensor - EC5 (S-SMC-M005)","2018-07-22T14:00:01",1.0,12.534,96.9,0.646,12.1],
    [51,"AB07CD0350","WETLAND SAL01","SALINE (FEN)",56.573904,-111.277774,"HOBO Rain Gauge Data Logger - RG3","HOBO Temperature/RH Smart Sensor (S-THB-M002)","Soil Moisture Smart Sensor - EC5 (S-SMC-M005)","2018-07-22T15:00:01",0.8,12.582,96.8,0.646,12.1],
    [52,"AB07CD0350","WETLAND SAL01","SALINE (FEN)",56.573904,-111.277774,"HOBO Rain Gauge Data Logger - RG3","HOBO Temperature/RH Smart Sensor (S-THB-M002)","Soil Moisture Smart Sensor - EC5 (S-SMC-M005)","2018-07-22T16:00:01",0.4,12.92,96.5,0.6453,12.4],
    [53,"AB07CD0350","WETLAND SAL01","SALINE (FEN)",56.573904,-111.277774,"HOBO Rain Gauge Data Logger - RG3","HOBO Temperature/RH Smart Sensor (S-THB-M002)","Soil Moisture Smart Sensor - EC5 (S-SMC-M005)","2018-07-22T17:00:01",0.0,14.314,95.4,0.646,13.6],
    [54,"AB07CD0350","WETLAND SAL01","SALINE (FEN)",56.573904,-111.277774,"HOBO Rain Gauge Data Logger - RG3","HOBO Temperature/RH Smart Sensor (S-THB-M002)","Soil Moisture Smart Sensor - EC5 (S-SMC-M005)","2018-07-22T18:00:01",0.0,17.344,87.5,0.646,15.3],
    [55,"AB07CD0350","WETLAND SAL01","SALINE (FEN)",56.573904,-111.277774,"HOBO Rain Gauge Data Logger - RG3","HOBO Temperature/RH Smart Sensor (S-THB-M002)","Soil Moisture Smart Sensor - EC5 (S-SMC-M005)","2018-07-22T19:00:01",0.0,16.225,80.8,0.646,12.9],
    [56,"AB07CD0350","WETLAND SAL01","SALINE (FEN)",56.573904,-111.277774,"HOBO Rain Gauge Data Logger - RG3","HOBO Temperature/RH Smart Sensor (S-THB-M002)","Soil Moisture Smart Sensor - EC5 (S-SMC-M005)","2018-07-22T20:00:01",0.0,15.915,78.2,0.646,12.1],
    [57,"AB07CD0350","WETLAND SAL01","SALINE (FEN)",56.573904,-111.277774,"HOBO Rain Gauge Data Logger - RG3","HOBO Temperature/RH Smart Sensor (S-THB-M002)","Soil Moisture Smart Sensor - EC5 (S-SMC-M005)","2018-07-22T21:00:01",0.0,13.209,82.9,0.646,10.4],
    [58,"AB07CD0350","WETLAND SAL01","SALINE (FEN)",56.573904,-111.277774,"HOBO Rain Gauge Data Logger - RG3","HOBO Temperature/RH Smart Sensor (S-THB-M002)","Soil Moisture Smart Sensor - EC5 (S-SMC-M005)","2018-07-22T22:00:01",0.4,11.977,91.0,0.646,10.6],
    [59,"AB07CD0350","WETLAND SAL01","SALINE (FEN)",56.573904,-111.277774,"HOBO Rain Gauge Data Logger - RG3","HOBO Temperature/RH Smart Sensor (S-THB-M002)","Soil Moisture Smart Sensor - EC5 (S-SMC-M005)","2018-07-22T23:00:01",0.2,12.001,94.4,0.6453,11.1],
    [60,"AB07CD0350","WETLAND SAL01","SALINE (FEN)",56.573904,-111.277774,"HOBO Rain Gauge Data Logger - RG3","HOBO Temperature/RH Smart Sensor (S-THB-M002)","Soil Moisture Smart Sensor - EC5 (S-SMC-M005)","2018-07-23T00:00:01",0.0,11.613,95.1,0.646,10.9],
    [61,"AB07CD0350","WETLAND SAL01","SALINE (FEN)",56.573904,-111.277774,"HOBO Rain Gauge Data Logger - RG3","HOBO Temperature/RH Smart Sensor (S-THB-M002)","Soil Moisture Smart Sensor - EC5 (S-SMC-M005)","2018-07-23T01:00:01",0.0,11.224,96.9,0.6453,10.8],
    [62,"AB07CD0350","WETLAND SAL01","SALINE (FEN)",56.573904,-111.277774,"HOBO Rain Gauge Data Logger - RG3","HOBO Temperature/RH Smart Sensor (S-THB-M002)","Soil Moisture Smart Sensor - EC5 (S-SMC-M005)","2018-07-23T02:00:01",0.0,11.321,94.6,0.646,10.5],
    [63,"AB07CD0350","WETLAND SAL01","SALINE (FEN)",56.573904,-111.277774,"HOBO Rain Gauge Data Logger - RG3","HOBO Temperature/RH Smart Sensor (S-THB-M002)","Soil Moisture Smart Sensor - EC5 (S-SMC-M005)","2018-07-23T03:00:01",0.0,11.807,90.2,0.646,10.3],
    [64,"AB07CD0350","WETLAND SAL01","SALINE (FEN)",56.573904,-111.277774,"HOBO Rain Gauge Data Logger - RG3","HOBO Temperature/RH Smart Sensor (S-THB-M002)","Soil Moisture Smart Sensor - EC5 (S-SMC-M005)","2018-07-23T04:00:01",0.0,11.565,86.6,0.6453,9.4],
    [65,"AB07CD0350","WETLAND SAL01","SALINE (FEN)",56.573904,-111.277774,"HOBO Rain Gauge Data Logger - RG3","HOBO Temperature/RH Smart Sensor (S-THB-M002)","Soil Moisture Smart Sensor - EC5 (S-SMC-M005)","2018-07-23T05:00:01",0.4,10.81,88.7,0.6453,9.0],
    [66,"AB07CD0350","WETLAND SAL01","SALINE (FEN)",56.573904,-111.277774,"HOBO Rain Gauge Data Logger - RG3","HOBO Temperature/RH Smart Sensor (S-THB-M002)","Soil Moisture Smart Sensor - EC5 (S-SMC-M005)","2018-07-23T06:00:01",0.4,10.369,93.8,0.6453,9.4],
    [67,"AB07CD0350","WETLAND SAL01","SALINE (FEN)",56.573904,-111.277774,"HOBO Rain Gauge Data Logger - RG3","HOBO Temperature/RH Smart Sensor (S-THB-M002)","Soil Moisture Smart Sensor - EC5 (S-SMC-M005)","2018-07-23T07:00:01",0.0,10.541,93.9,0.6453,9.6],
    [68,"AB07CD0350","WETLAND SAL01","SALINE (FEN)",56.573904,-111.277774,"HOBO Rain Gauge Data Logger - RG3","HOBO Temperature/RH Smart Sensor (S-THB-M002)","Soil Moisture Smart Sensor - EC5 (S-SMC-M005)","2018-07-23T08:00:01",0.0,11.248,89.4,0.6453,9.6],
    [69,"AB07CD0350","WETLAND SAL01","SALINE (FEN)",56.573904,-111.277774,"HOBO Rain Gauge Data Logger - RG3","HOBO Temperature/RH Smart Sensor (S-THB-M002)","Soil Moisture Smart Sensor - EC5 (S-SMC-M005)","2018-07-23T09:00:01",0.0,12.219,85.4,0.6453,9.9],
    [70,"AB07CD0350","WETLAND SAL01","SALINE (FEN)",56.573904,-111.277774,"HOBO Rain Gauge Data Logger - RG3","HOBO Temperature/RH Smart Sensor (S-THB-M002)","Soil Moisture Smart Sensor - EC5 (S-SMC-M005)","2018-07-23T10:00:01",0.0,12.992,81.4,0.6453,9.9],
    [71,"AB07CD0350","WETLAND SAL01","SALINE (FEN)",56.573904,-111.277774,"HOBO Rain Gauge Data Logger - RG3","HOBO Temperature/RH Smart Sensor (S-THB-M002)","Soil Moisture Smart Sensor - EC5 (S-SMC-M005)","2018-07-23T11:00:01",0.2,12.025,80.2,0.6453,8.7],
    [72,"AB07CD0350","WETLAND SAL01","SALINE (FEN)",56.573904,-111.277774,"HOBO Rain Gauge Data Logger - RG3","HOBO Temperature/RH Smart Sensor (S-THB-M002)","Soil Moisture Smart Sensor - EC5 (S-SMC-M005)","2018-07-23T12:00:01",1.0,12.074,88.8,0.6453,10.3],
    [73,"AB07CD0350","WETLAND SAL01","SALINE (FEN)",56.573904,-111.277774,"HOBO Rain Gauge Data Logger - RG3","HOBO Temperature/RH Smart Sensor (S-THB-M002)","Soil Moisture Smart Sensor - EC5 (S-SMC-M005)","2018-07-23T13:00:01",0.0,11.977,90.4,0.6453,10.5],
    [74,"AB07CD0350","WETLAND SAL01","SALINE (FEN)",56.573904,-111.277774,"HOBO Rain Gauge Data Logger - RG3","HOBO Temperature/RH Smart Sensor (S-THB-M002)","Soil Moisture Smart Sensor - EC5 (S-SMC-M005)","2018-07-23T14:00:01",0.0,12.243,92.3,0.6453,11.0],
    [75,"AB07CD0350","WETLAND SAL01","SALINE (FEN)",56.573904,-111.277774,"HOBO Rain Gauge Data Logger - RG3","HOBO Temperature/RH Smart Sensor (S-THB-M002)","Soil Moisture Smart Sensor - EC5 (S-SMC-M005)","2018-07-23T15:00:01",1.2,11.662,94.3,0.6453,10.8],
    [76,"AB07CD0350","WETLAND SAL01","SALINE (FEN)",56.573904,-111.277774,"HOBO Rain Gauge Data Logger - RG3","HOBO Temperature/RH Smart Sensor (S-THB-M002)","Soil Moisture Smart Sensor - EC5 (S-SMC-M005)","2018-07-23T16:00:01",3.8,11.686,96.8,0.6453,11.2],
    [77,"AB07CD0350","WETLAND SAL01","SALINE (FEN)",56.573904,-111.277774,"HOBO Rain Gauge Data Logger - RG3","HOBO Temperature/RH Smart Sensor (S-THB-M002)","Soil Moisture Smart Sensor - EC5 (S-SMC-M005)","2018-07-23T17:00:01",1.2,11.88,96.8,0.6453,11.4],
    [78,"AB07CD0350","WETLAND SAL01","SALINE (FEN)",56.573904,-111.277774,"HOBO Rain Gauge Data Logger - RG3","HOBO Temperature/RH Smart Sensor (S-THB-M002)","Soil Moisture Smart Sensor - EC5 (S-SMC-M005)","2018-07-23T18:00:01",1.0,11.783,96.8,0.6453,11.3],
    [79,"AB07CD0350","WETLAND SAL01","SALINE (FEN)",56.573904,-111.277774,"HOBO Rain Gauge Data Logger - RG3","HOBO Temperature/RH Smart Sensor (S-THB-M002)","Soil Moisture Smart Sensor - EC5 (S-SMC-M005)","2018-07-23T19:00:01",0.8,11.516,97.3,0.6453,11.1],
    [80,"AB07CD0350","WETLAND SAL01","SALINE (FEN)",56.573904,-111.277774,"HOBO Rain Gauge Data Logger - RG3","HOBO Temperature/RH Smart Sensor (S-THB-M002)","Soil Moisture Smart Sensor - EC5 (S-SMC-M005)","2018-07-23T20:00:01",1.0,11.589,98.6,0.6453,11.4],
    [81,"AB07CD0350","WETLAND SAL01","SALINE (FEN)",56.573904,-111.277774,"HOBO Rain Gauge Data Logger - RG3","HOBO Temperature/RH Smart Sensor (S-THB-M002)","Soil Moisture Smart Sensor - EC5 (S-SMC-M005)","2018-07-23T21:00:01",0.8,11.394,98.9,0.6453,11.2],
    [82,"AB07CD0350","WETLAND SAL01","SALINE (FEN)",56.573904,-111.277774,"HOBO Rain Gauge Data Logger - RG3","HOBO Temperature/RH Smart Sensor (S-THB-M002)","Soil Moisture Smart Sensor - EC5 (S-SMC-M005)","2018-07-23T22:00:01",1.4,11.346,99.3,0.6453,11.3],
    [83,"AB07CD0350","WETLAND SAL01","SALINE (FEN)",56.573904,-111.277774,"HOBO Rain Gauge Data Logger - RG3","HOBO Temperature/RH Smart Sensor (S-THB-M002)","Soil Moisture Smart Sensor - EC5 (S-SMC-M005)","2018-07-23T23:00:01",1.8,11.297,99.7,0.6453,11.3],
    [84,"AB07CD0350","WETLAND SAL01","SALINE (FEN)",56.573904,-111.277774,"HOBO Rain Gauge Data Logger - RG3","HOBO Temperature/RH Smart Sensor (S-THB-M002)","Soil Moisture Smart Sensor - EC5 (S-SMC-M005)","2018-07-24T00:00:01",1.4,11.297,100.0,0.6453,11.3],
    [85,"AB07CD0350","WETLAND SAL01","SALINE (FEN)",56.573904,-111.277774,"HOBO Rain Gauge Data Logger - RG3","HOBO Temperature/RH Smart Sensor (S-THB-M002)","Soil Moisture Smart Sensor - EC5 (S-SMC-M005)","2018-07-24T01:00:01",0.4,11.297,100.0,0.6453,11.3],
    [86,"AB07CD0350","WETLAND SAL01","SALINE (FEN)",56.573904,-111.277774,"HOBO Rain Gauge Data Logger - RG3","HOBO Temperature/RH Smart Sensor (S-THB-M002)","Soil Moisture Smart Sensor - EC5 (S-SMC-M005)","2018-07-24T02:00:01",0.8,11.273,100.0,0.6453,11.3],
    [87,"AB07CD0350","WETLAND SAL01","SALINE (FEN)",56.573904,-111.277774,"HOBO Rain Gauge Data Logger - RG3","HOBO Temperature/RH Smart Sensor (S-THB-M002)","Soil Moisture Smart Sensor - EC5 (S-SMC-M005)","2018-07-24T03:00:01",0.6,11.273,100.0,0.6453,11.3],
    [88,"AB07CD0350","WETLAND SAL01","SALINE (FEN)",56.573904,-111.277774,"HOBO Rain Gauge Data Logger - RG3","HOBO Temperature/RH Smart Sensor (S-THB-M002)","Soil Moisture Smart Sensor - EC5 (S-SMC-M005)","2018-07-24T04:00:01",2.8,11.321,100.0,0.6453,11.3],
    [89,"AB07CD0350","WETLAND SAL01","SALINE (FEN)",56.573904,-111.277774,"HOBO Rain Gauge Data Logger - RG3","HOBO Temperature/RH Smart Sensor (S-THB-M002)","Soil Moisture Smart Sensor - EC5 (S-SMC-M005)","2018-07-24T05:00:01",1.6,11.37,100.0,0.6453,11.4],
    [90,"AB07CD0350","WETLAND SAL01","SALINE (FEN)",56.573904,-111.277774,"HOBO Rain Gauge Data Logger - RG3","HOBO Temperature/RH Smart Sensor (S-THB-M002)","Soil Moisture Smart Sensor - EC5 (S-SMC-M005)","2018-07-24T06:00:01",0.6,11.419,100.0,0.6453,11.4],
    [91,"AB07CD0350","WETLAND SAL01","SALINE (FEN)",56.573904,-111.277774,"HOBO Rain Gauge Data Logger - RG3","HOBO Temperature/RH Smart Sensor (S-THB-M002)","Soil Moisture Smart Sensor - EC5 (S-SMC-M005)","2018-07-24T07:00:01",1.4,11.613,100.0,0.6453,11.6],
    [92,"AB07CD0350","WETLAND SAL01","SALINE (FEN)",56.573904,-111.277774,"HOBO Rain Gauge Data Logger - RG3","HOBO Temperature/RH Smart Sensor (S-THB-M002)","Soil Moisture Smart Sensor - EC5 (S-SMC-M005)","2018-07-24T08:00:01",1.2,12.001,100.0,0.6453,12.0],
    [93,"AB07CD0350","WETLAND SAL01","SALINE (FEN)",56.573904,-111.277774,"HOBO Rain Gauge Data Logger - RG3","HOBO Temperature/RH Smart Sensor (S-THB-M002)","Soil Moisture Smart Sensor - EC5 (S-SMC-M005)","2018-07-24T09:00:01",0.6,12.606,100.0,0.6453,12.6],
    [94,"AB07CD0350","WETLAND SAL01","SALINE (FEN)",56.573904,-111.277774,"HOBO Rain Gauge Data Logger - RG3","HOBO Temperature/RH Smart Sensor (S-THB-M002)","Soil Moisture Smart Sensor - EC5 (S-SMC-M005)","2018-07-24T10:00:01",0.2,13.618,99.6,0.6453,13.6],
    [95,"AB07CD0350","WETLAND SAL01","SALINE (FEN)",56.573904,-111.277774,"HOBO Rain Gauge Data Logger - RG3","HOBO Temperature/RH Smart Sensor (S-THB-M002)","Soil Moisture Smart Sensor - EC5 (S-SMC-M005)","2018-07-24T11:00:01",0.0,13.978,97.8,0.6453,13.7],
    [96,"AB07CD0350","WETLAND SAL01","SALINE (FEN)",56.573904,-111.277774,"HOBO Rain Gauge Data Logger - RG3","HOBO Temperature/RH Smart Sensor (S-THB-M002)","Soil Moisture Smart Sensor - EC5 (S-SMC-M005)","2018-07-24T12:00:01",0.8,13.834,98.0,0.6453,13.5],
    [97,"AB07CD0350","WETLAND SAL01","SALINE (FEN)",56.573904,-111.277774,"HOBO Rain Gauge Data Logger - RG3","HOBO Temperature/RH Smart Sensor (S-THB-M002)","Soil Moisture Smart Sensor - EC5 (S-SMC-M005)","2018-07-24T13:00:01",0.2,14.864,97.1,0.6453,14.4],
    [98,"AB07CD0350","WETLAND SAL01","SALINE (FEN)",56.573904,-111.277774,"HOBO Rain Gauge Data Logger - RG3","HOBO Temperature/RH Smart Sensor (S-THB-M002)","Soil Moisture Smart Sensor - EC5 (S-SMC-M005)","2018-07-24T14:00:01",0.2,14.457,93.8,0.6453,13.5],
    [99,"AB07CD0350","WETLAND SAL01","SALINE (FEN)",56.573904,-111.277774,"HOBO Rain Gauge Data Logger - RG3","HOBO Temperature/RH Smart Sensor (S-THB-M002)","Soil Moisture Smart Sensor - EC5 (S-SMC-M005)","2018-07-24T15:00:01",2.6,14.17,97.1,0.6453,13.7],
    [100,"AB07CD0350","WETLAND SAL01","SALINE (FEN)",56.573904,-111.277774,"HOBO Rain Gauge Data Logger - RG3","HOBO Temperature/RH Smart Sensor (S-THB-M002)","Soil Moisture Smart Sensor - EC5 (S-SMC-M005)","2018-07-24T16:00:01",0.2,14.433,96.5,0.6453,13.9],
    [101,"AB07CD0350","WETLAND SAL01","SALINE (FEN)",56.573904,-111.277774,"HOBO Rain Gauge Data Logger - RG3","HOBO Temperature/RH Smart Sensor (S-THB-M002)","Soil Moisture Smart Sensor - EC5 (S-SMC-M005)","2018-07-24T17:00:01",0.0,14.984,94.8,0.6453,14.2],
    [102,"AB07CD0350","WETLAND SAL01","SALINE (FEN)",56.573904,-111.277774,"HOBO Rain Gauge Data Logger - RG3","HOBO Temperature/RH Smart Sensor (S-THB-M002)","Soil Moisture Smart Sensor - EC5 (S-SMC-M005)","2018-07-24T18:00:01",0.0,16.249,90.6,0.6453,14.7],
    [103,"AB07CD0350","WETLAND SAL01","SALINE (FEN)",56.573904,-111.277774,"HOBO Rain Gauge Data Logger - RG3","HOBO Temperature/RH Smart Sensor (S-THB-M002)","Soil Moisture Smart Sensor - EC5 (S-SMC-M005)","2018-07-24T19:00:01",0.0,16.201,85.8,0.6453,13.8],
    [104,"AB07CD0350","WETLAND SAL01","SALINE (FEN)",56.573904,-111.277774,"HOBO Rain Gauge Data Logger - RG3","HOBO Temperature/RH Smart Sensor (S-THB-M002)","Soil Moisture Smart Sensor - EC5 (S-SMC-M005)","2018-07-24T20:00:01",0.0,15.819,85.4,0.6453,13.4],
    [105,"AB07CD0350","WETLAND SAL01","SALINE (FEN)",56.573904,-111.277774,"HOBO Rain Gauge Data Logger - RG3","HOBO Temperature/RH Smart Sensor (S-THB-M002)","Soil Moisture Smart Sensor - EC5 (S-SMC-M005)","2018-07-24T21:00:01",0.0,14.864,85.0,0.6453,12.4],
    [106,"AB07CD0350","WETLAND SAL01","SALINE (FEN)",56.573904,-111.277774,"HOBO Rain Gauge Data Logger - RG3","HOBO Temperature/RH Smart Sensor (S-THB-M002)","Soil Moisture Smart Sensor - EC5 (S-SMC-M005)","2018-07-24T22:00:01",0.0,11.273,91.8,0.6453,10.0],
    [107,"AB07CD0350","WETLAND SAL01","SALINE (FEN)",56.573904,-111.277774,"HOBO Rain Gauge Data Logger - RG3","HOBO Temperature/RH Smart Sensor (S-THB-M002)","Soil Moisture Smart Sensor - EC5 (S-SMC-M005)","2018-07-24T23:00:01",0.0,12.098,96.3,0.6453,11.5],
    [108,"AB07CD0350","WETLAND SAL01","SALINE (FEN)",56.573904,-111.277774,"HOBO Rain Gauge Data Logger - RG3","HOBO Temperature/RH Smart Sensor (S-THB-M002)","Soil Moisture Smart Sensor - EC5 (S-SMC-M005)","2018-07-25T00:00:01",0.0,12.074,97.2,0.6453,11.7],
    [109,"AB07CD0350","WETLAND SAL01","SALINE (FEN)",56.573904,-111.277774,"HOBO Rain Gauge Data Logger - RG3","HOBO Temperature/RH Smart Sensor (S-THB-M002)","Soil Moisture Smart Sensor - EC5 (S-SMC-M005)","2018-07-25T01:00:01",0.0,12.001,97.9,0.6453,11.7],
    [110,"AB07CD0350","WETLAND SAL01","SALINE (FEN)",56.573904,-111.277774,"HOBO Rain Gauge Data Logger - RG3","HOBO Temperature/RH Smart Sensor (S-THB-M002)","Soil Moisture Smart Sensor - EC5 (S-SMC-M005)","2018-07-25T02:00:01",0.0,12.001,98.6,0.6453,11.8],
    [111,"AB07CD0350","WETLAND SAL01","SALINE (FEN)",56.573904,-111.277774,"HOBO Rain Gauge Data Logger - RG3","HOBO Temperature/RH Smart Sensor (S-THB-M002)","Soil Moisture Smart Sensor - EC5 (S-SMC-M005)","2018-07-25T03:00:01",0.0,11.224,99.0,0.646,11.1],
    [112,"AB07CD0350","WETLAND SAL01","SALINE (FEN)",56.573904,-111.277774,"HOBO Rain Gauge Data Logger - RG3","HOBO Temperature/RH Smart Sensor (S-THB-M002)","Soil Moisture Smart Sensor - EC5 (S-SMC-M005)","2018-07-25T04:00:01",0.0,10.834,99.6,0.646,10.8],
    [113,"AB07CD0350","WETLAND SAL01","SALINE (FEN)",56.573904,-111.277774,"HOBO Rain Gauge Data Logger - RG3","HOBO Temperature/RH Smart Sensor (S-THB-M002)","Soil Moisture Smart Sensor - EC5 (S-SMC-M005)","2018-07-25T05:00:01",0.0,10.394,100.0,0.6453,10.4],
    [114,"AB07CD0350","WETLAND SAL01","SALINE (FEN)",56.573904,-111.277774,"HOBO Rain Gauge Data Logger - RG3","HOBO Temperature/RH Smart Sensor (S-THB-M002)","Soil Moisture Smart Sensor - EC5 (S-SMC-M005)","2018-07-25T06:00:01",0.0,10.296,100.0,0.646,10.3],
    [115,"AB07CD0350","WETLAND SAL01","SALINE (FEN)",56.573904,-111.277774,"HOBO Rain Gauge Data Logger - RG3","HOBO Temperature/RH Smart Sensor (S-THB-M002)","Soil Moisture Smart Sensor - EC5 (S-SMC-M005)","2018-07-25T07:00:01",0.0,11.419,100.0,0.646,11.4],
    [116,"AB07CD0350","WETLAND SAL01","SALINE (FEN)",56.573904,-111.277774,"HOBO Rain Gauge Data Logger - RG3","HOBO Temperature/RH Smart Sensor (S-THB-M002)","Soil Moisture Smart Sensor - EC5 (S-SMC-M005)","2018-07-25T08:00:01",0.0,12.703,98.2,0.646,12.4],
    [117,"AB07CD0350","WETLAND SAL01","SALINE (FEN)",56.573904,-111.277774,"HOBO Rain Gauge Data Logger - RG3","HOBO Temperature/RH Smart Sensor (S-THB-M002)","Soil Moisture Smart Sensor - EC5 (S-SMC-M005)","2018-07-25T09:00:01",0.0,14.505,94.8,0.6453,13.7],
    [118,"AB07CD0350","WETLAND SAL01","SALINE (FEN)",56.573904,-111.277774,"HOBO Rain Gauge Data Logger - RG3","HOBO Temperature/RH Smart Sensor (S-THB-M002)","Soil Moisture Smart Sensor - EC5 (S-SMC-M005)","2018-07-25T10:00:01",0.0,18.033,86.6,0.6453,15.8],
    [119,"AB07CD0350","WETLAND SAL01","SALINE (FEN)",56.573904,-111.277774,"HOBO Rain Gauge Data Logger - RG3","HOBO Temperature/RH Smart Sensor (S-THB-M002)","Soil Moisture Smart Sensor - EC5 (S-SMC-M005)","2018-07-25T11:00:01",0.0,18.866,75.3,0.6453,14.4],
    [120,"AB07CD0350","WETLAND SAL01","SALINE (FEN)",56.573904,-111.277774,"HOBO Rain Gauge Data Logger - RG3","HOBO Temperature/RH Smart Sensor (S-THB-M002)","Soil Moisture Smart Sensor - EC5 (S-SMC-M005)","2018-07-25T12:00:01",0.0,18.39,68.4,0.6453,12.5],
    [121,"AB07CD0350","WETLAND SAL01","SALINE (FEN)",56.573904,-111.277774,"HOBO Rain Gauge Data Logger - RG3","HOBO Temperature/RH Smart Sensor (S-THB-M002)","Soil Moisture Smart Sensor - EC5 (S-SMC-M005)","2018-07-25T13:00:01",0.0,20.936,62.0,0.6453,13.4],
    [122,"AB07CD0350","WETLAND SAL01","SALINE (FEN)",56.573904,-111.277774,"HOBO Rain Gauge Data Logger - RG3","HOBO Temperature/RH Smart Sensor (S-THB-M002)","Soil Moisture Smart Sensor - EC5 (S-SMC-M005)","2018-07-25T14:00:01",0.0,19.912,58.4,0.6453,11.5],
    [123,"AB07CD0350","WETLAND SAL01","SALINE (FEN)",56.573904,-111.277774,"HOBO Rain Gauge Data Logger - RG3","HOBO Temperature/RH Smart Sensor (S-THB-M002)","Soil Moisture Smart Sensor - EC5 (S-SMC-M005)","2018-07-25T15:00:01",0.0,19.96,59.5,0.6453,11.9],
    [124,"AB07CD0350","WETLAND SAL01","SALINE (FEN)",56.573904,-111.277774,"HOBO Rain Gauge Data Logger - RG3","HOBO Temperature/RH Smart Sensor (S-THB-M002)","Soil Moisture Smart Sensor - EC5 (S-SMC-M005)","2018-07-25T16:00:01",0.0,20.746,60.2,0.6453,12.8],
    [125,"AB07CD0350","WETLAND SAL01","SALINE (FEN)",56.573904,-111.277774,"HOBO Rain Gauge Data Logger - RG3","HOBO Temperature/RH Smart Sensor (S-THB-M002)","Soil Moisture Smart Sensor - EC5 (S-SMC-M005)","2018-07-25T17:00:01",0.0,21.27,54.7,0.6453,11.8],
    [126,"AB07CD0350","WETLAND SAL01","SALINE (FEN)",56.573904,-111.277774,"HOBO Rain Gauge Data Logger - RG3","HOBO Temperature/RH Smart Sensor (S-THB-M002)","Soil Moisture Smart Sensor - EC5 (S-SMC-M005)","2018-07-25T18:00:01",0.0,21.7,51.9,0.646,11.4],
    [127,"AB07CD0350","WETLAND SAL01","SALINE (FEN)",56.573904,-111.277774,"HOBO Rain Gauge Data Logger - RG3","HOBO Temperature/RH Smart Sensor (S-THB-M002)","Soil Moisture Smart Sensor - EC5 (S-SMC-M005)","2018-07-25T19:00:01",0.0,22.321,52.1,0.646,12.0],
    [128,"AB07CD0350","WETLAND SAL01","SALINE (FEN)",56.573904,-111.277774,"HOBO Rain Gauge Data Logger - RG3","HOBO Temperature/RH Smart Sensor (S-THB-M002)","Soil Moisture Smart Sensor - EC5 (S-SMC-M005)","2018-07-25T20:00:01",0.0,20.341,55.1,0.646,11.0],
    [129,"AB07CD0350","WETLAND SAL01","SALINE (FEN)",56.573904,-111.277774,"HOBO Rain Gauge Data Logger - RG3","HOBO Temperature/RH Smart Sensor (S-THB-M002)","Soil Moisture Smart Sensor - EC5 (S-SMC-M005)","2018-07-25T21:00:01",0.0,18.152,61.2,0.646,10.6],
    [130,"AB07CD0350","WETLAND SAL01","SALINE (FEN)",56.573904,-111.277774,"HOBO Rain Gauge Data Logger - RG3","HOBO Temperature/RH Smart Sensor (S-THB-M002)","Soil Moisture Smart Sensor - EC5 (S-SMC-M005)","2018-07-25T22:00:01",0.0,14.433,75.6,0.646,10.2],
    [131,"AB07CD0350","WETLAND SAL01","SALINE (FEN)",56.573904,-111.277774,"HOBO Rain Gauge Data Logger - RG3","HOBO Temperature/RH Smart Sensor (S-THB-M002)","Soil Moisture Smart Sensor - EC5 (S-SMC-M005)","2018-07-25T23:00:01",0.0,11.613,87.2,0.646,9.6],
    [132,"AB07CD0350","WETLAND SAL01","SALINE (FEN)",56.573904,-111.277774,"HOBO Rain Gauge Data Logger - RG3","HOBO Temperature/RH Smart Sensor (S-THB-M002)","Soil Moisture Smart Sensor - EC5 (S-SMC-M005)","2018-07-26T00:00:01",0.0,10.418,91.8,0.646,9.2],
    [133,"AB07CD0350","WETLAND SAL01","SALINE (FEN)",56.573904,-111.277774,"HOBO Rain Gauge Data Logger - RG3","HOBO Temperature/RH Smart Sensor (S-THB-M002)","Soil Moisture Smart Sensor - EC5 (S-SMC-M005)","2018-07-26T01:00:01",0.0,11.54,93.8,0.646,10.6],
    [134,"AB07CD0350","WETLAND SAL01","SALINE (FEN)",56.573904,-111.277774,"HOBO Rain Gauge Data Logger - RG3","HOBO Temperature/RH Smart Sensor (S-THB-M002)","Soil Moisture Smart Sensor - EC5 (S-SMC-M005)","2018-07-26T02:00:01",0.0,12.92,92.6,0.6467,11.8],
    [135,"AB07CD0350","WETLAND SAL01","SALINE (FEN)",56.573904,-111.277774,"HOBO Rain Gauge Data Logger - RG3","HOBO Temperature/RH Smart Sensor (S-THB-M002)","Soil Moisture Smart Sensor - EC5 (S-SMC-M005)","2018-07-26T03:00:01",0.0,12.896,91.0,0.6467,11.5],
    [136,"AB07CD0350","WETLAND SAL01","SALINE (FEN)",56.573904,-111.277774,"HOBO Rain Gauge Data Logger - RG3","HOBO Temperature/RH Smart Sensor (S-THB-M002)","Soil Moisture Smart Sensor - EC5 (S-SMC-M005)","2018-07-26T04:00:01",0.0,12.243,91.1,0.6467,10.8],
    [137,"AB07CD0350","WETLAND SAL01","SALINE (FEN)",56.573904,-111.277774,"HOBO Rain Gauge Data Logger - RG3","HOBO Temperature/RH Smart Sensor (S-THB-M002)","Soil Moisture Smart Sensor - EC5 (S-SMC-M005)","2018-07-26T05:00:01",0.0,11.492,93.9,0.6467,10.6],
    [138,"AB07CD0350","WETLAND SAL01","SALINE (FEN)",56.573904,-111.277774,"HOBO Rain Gauge Data Logger - RG3","HOBO Temperature/RH Smart Sensor (S-THB-M002)","Soil Moisture Smart Sensor - EC5 (S-SMC-M005)","2018-07-26T06:00:01",0.0,11.953,94.5,0.6467,11.1],
    [139,"AB07CD0350","WETLAND SAL01","SALINE (FEN)",56.573904,-111.277774,"HOBO Rain Gauge Data Logger - RG3","HOBO Temperature/RH Smart Sensor (S-THB-M002)","Soil Moisture Smart Sensor - EC5 (S-SMC-M005)","2018-07-26T07:00:01",0.0,13.978,92.8,0.6467,12.8],
    [140,"AB07CD0350","WETLAND SAL01","SALINE (FEN)",56.573904,-111.277774,"HOBO Rain Gauge Data Logger - RG3","HOBO Temperature/RH Smart Sensor (S-THB-M002)","Soil Moisture Smart Sensor - EC5 (S-SMC-M005)","2018-07-26T08:00:01",0.0,15.843,89.4,0.6467,14.1],
    [141,"AB07CD0350","WETLAND SAL01","SALINE (FEN)",56.573904,-111.277774,"HOBO Rain Gauge Data Logger - RG3","HOBO Temperature/RH Smart Sensor (S-THB-M002)","Soil Moisture Smart Sensor - EC5 (S-SMC-M005)","2018-07-26T09:00:01",0.0,17.843,83.3,0.6467,15.0],
    [142,"AB07CD0350","WETLAND SAL01","SALINE (FEN)",56.573904,-111.277774,"HOBO Rain Gauge Data Logger - RG3","HOBO Temperature/RH Smart Sensor (S-THB-M002)","Soil Moisture Smart Sensor - EC5 (S-SMC-M005)","2018-07-26T10:00:01",0.0,19.674,74.1,0.6467,15.0],
    [143,"AB07CD0350","WETLAND SAL01","SALINE (FEN)",56.573904,-111.277774,"HOBO Rain Gauge Data Logger - RG3","HOBO Temperature/RH Smart Sensor (S-THB-M002)","Soil Moisture Smart Sensor - EC5 (S-SMC-M005)","2018-07-26T11:00:01",0.0,20.889,67.9,0.6467,14.8],
    [144,"AB07CD0350","WETLAND SAL01","SALINE (FEN)",56.573904,-111.277774,"HOBO Rain Gauge Data Logger - RG3","HOBO Temperature/RH Smart Sensor (S-THB-M002)","Soil Moisture Smart Sensor - EC5 (S-SMC-M005)","2018-07-26T12:00:01",0.0,23.304,63.4,0.6467,16.0],
    [145,"AB07CD0350","WETLAND SAL01","SALINE (FEN)",56.573904,-111.277774,"HOBO Rain Gauge Data Logger - RG3","HOBO Temperature/RH Smart Sensor (S-THB-M002)","Soil Moisture Smart Sensor - EC5 (S-SMC-M005)","2018-07-26T13:00:01",0.0,23.088,55.8,0.6467,13.8],
    [146,"AB07CD0350","WETLAND SAL01","SALINE (FEN)",56.573904,-111.277774,"HOBO Rain Gauge Data Logger - RG3","HOBO Temperature/RH Smart Sensor (S-THB-M002)","Soil Moisture Smart Sensor - EC5 (S-SMC-M005)","2018-07-26T14:00:01",0.0,25.016,51.0,0.6467,14.2],
    [147,"AB07CD0350","WETLAND SAL01","SALINE (FEN)",56.573904,-111.277774,"HOBO Rain Gauge Data Logger - RG3","HOBO Temperature/RH Smart Sensor (S-THB-M002)","Soil Moisture Smart Sensor - EC5 (S-SMC-M005)","2018-07-26T15:00:01",0.0,25.768,43.9,0.6467,12.6],
    [148,"AB07CD0350","WETLAND SAL01","SALINE (FEN)",56.573904,-111.277774,"HOBO Rain Gauge Data Logger - RG3","HOBO Temperature/RH Smart Sensor (S-THB-M002)","Soil Moisture Smart Sensor - EC5 (S-SMC-M005)","2018-07-26T16:00:01",0.0,25.793,40.3,0.6467,11.3],
    [149,"AB07CD0350","WETLAND SAL01","SALINE (FEN)",56.573904,-111.277774,"HOBO Rain Gauge Data Logger - RG3","HOBO Temperature/RH Smart Sensor (S-THB-M002)","Soil Moisture Smart Sensor - EC5 (S-SMC-M005)","2018-07-26T17:00:01",0.0,24.171,39.8,0.6467,9.7],
    [150,"AB07CD0350","WETLAND SAL01","SALINE (FEN)",56.573904,-111.277774,"HOBO Rain Gauge Data Logger - RG3","HOBO Temperature/RH Smart Sensor (S-THB-M002)","Soil Moisture Smart Sensor - EC5 (S-SMC-M005)","2018-07-26T18:00:01",0.0,24.388,46.4,0.6467,12.2],
    [151,"AB07CD0350","WETLAND SAL01","SALINE (FEN)",56.573904,-111.277774,"HOBO Rain Gauge Data Logger - RG3","HOBO Temperature/RH Smart Sensor (S-THB-M002)","Soil Moisture Smart Sensor - EC5 (S-SMC-M005)","2018-07-26T19:00:01",0.0,24.774,43.8,0.6467,11.6],
    [152,"AB07CD0350","WETLAND SAL01","SALINE (FEN)",56.573904,-111.277774,"HOBO Rain Gauge Data Logger - RG3","HOBO Temperature/RH Smart Sensor (S-THB-M002)","Soil Moisture Smart Sensor - EC5 (S-SMC-M005)","2018-07-26T20:00:01",0.0,23.593,43.7,0.6467,10.5],
    [153,"AB07CD0350","WETLAND SAL01","SALINE (FEN)",56.573904,-111.277774,"HOBO Rain Gauge Data Logger - RG3","HOBO Temperature/RH Smart Sensor (S-THB-M002)","Soil Moisture Smart Sensor - EC5 (S-SMC-M005)","2018-07-26T21:00:01",0.0,21.843,47.9,0.6467,10.3],
    [154,"AB07CD0350","WETLAND SAL01","SALINE (FEN)",56.573904,-111.277774,"HOBO Rain Gauge Data Logger - RG3","HOBO Temperature/RH Smart Sensor (S-THB-M002)","Soil Moisture Smart Sensor - EC5 (S-SMC-M005)","2018-07-26T22:00:01",0.0,16.677,61.7,0.6467,9.3],
    [155,"AB07CD0350","WETLAND SAL01","SALINE (FEN)",56.573904,-111.277774,"HOBO Rain Gauge Data Logger - RG3","HOBO Temperature/RH Smart Sensor (S-THB-M002)","Soil Moisture Smart Sensor - EC5 (S-SMC-M005)","2018-07-26T23:00:01",0.0,14.673,78.5,0.6474,11.0],
    [156,"AB07CD0350","WETLAND SAL01","SALINE (FEN)",56.573904,-111.277774,"HOBO Rain Gauge Data Logger - RG3","HOBO Temperature/RH Smart Sensor (S-THB-M002)","Soil Moisture Smart Sensor - EC5 (S-SMC-M005)","2018-07-27T00:00:01",0.0,12.05,86.5,0.6474,9.9],
    [157,"AB07CD0350","WETLAND SAL01","SALINE (FEN)",56.573904,-111.277774,"HOBO Rain Gauge Data Logger - RG3","HOBO Temperature/RH Smart Sensor (S-THB-M002)","Soil Moisture Smart Sensor - EC5 (S-SMC-M005)","2018-07-27T01:00:01",0.0,10.541,91.1,0.6474,9.2],
    [158,"AB07CD0350","WETLAND SAL01","SALINE (FEN)",56.573904,-111.277774,"HOBO Rain Gauge Data Logger - RG3","HOBO Temperature/RH Smart Sensor (S-THB-M002)","Soil Moisture Smart Sensor - EC5 (S-SMC-M005)","2018-07-27T02:00:01",0.0,9.952,92.9,0.6474,8.9],
    [159,"AB07CD0350","WETLAND SAL01","SALINE (FEN)",56.573904,-111.277774,"HOBO Rain Gauge Data Logger - RG3","HOBO Temperature/RH Smart Sensor (S-THB-M002)","Soil Moisture Smart Sensor - EC5 (S-SMC-M005)","2018-07-27T03:00:01",0.0,9.015,94.4,0.6474,8.2],
    [160,"AB07CD0350","WETLAND SAL01","SALINE (FEN)",56.573904,-111.277774,"HOBO Rain Gauge Data Logger - RG3","HOBO Temperature/RH Smart Sensor (S-THB-M002)","Soil Moisture Smart Sensor - EC5 (S-SMC-M005)","2018-07-27T04:00:01",0.0,8.394,95.3,0.6474,7.7],
    [161,"AB07CD0350","WETLAND SAL01","SALINE (FEN)",56.573904,-111.277774,"HOBO Rain Gauge Data Logger - RG3","HOBO Temperature/RH Smart Sensor (S-THB-M002)","Soil Moisture Smart Sensor - EC5 (S-SMC-M005)","2018-07-27T05:00:01",0.0,8.045,96.1,0.6474,7.5],
    [162,"AB07CD0350","WETLAND SAL01","SALINE (FEN)",56.573904,-111.277774,"HOBO Rain Gauge Data Logger - RG3","HOBO Temperature/RH Smart Sensor (S-THB-M002)","Soil Moisture Smart Sensor - EC5 (S-SMC-M005)","2018-07-27T06:00:01",0.0,8.27,96.5,0.6474,7.8],
    [163,"AB07CD0350","WETLAND SAL01","SALINE (FEN)",56.573904,-111.277774,"HOBO Rain Gauge Data Logger - RG3","HOBO Temperature/RH Smart Sensor (S-THB-M002)","Soil Moisture Smart Sensor - EC5 (S-SMC-M005)","2018-07-27T07:00:01",0.0,12.606,94.4,0.6474,11.7],
    [164,"AB07CD0350","WETLAND SAL01","SALINE (FEN)",56.573904,-111.277774,"HOBO Rain Gauge Data Logger - RG3","HOBO Temperature/RH Smart Sensor (S-THB-M002)","Soil Moisture Smart Sensor - EC5 (S-SMC-M005)","2018-07-27T08:00:01",0.0,18.699,83.3,0.6474,15.8],
    [165,"AB07CD0350","WETLAND SAL01","SALINE (FEN)",56.573904,-111.277774,"HOBO Rain Gauge Data Logger - RG3","HOBO Temperature/RH Smart Sensor (S-THB-M002)","Soil Moisture Smart Sensor - EC5 (S-SMC-M005)","2018-07-27T09:00:01",0.0,20.746,68.5,0.6474,14.8],
    [166,"AB07CD0350","WETLAND SAL01","SALINE (FEN)",56.573904,-111.277774,"HOBO Rain Gauge Data Logger - RG3","HOBO Temperature/RH Smart Sensor (S-THB-M002)","Soil Moisture Smart Sensor - EC5 (S-SMC-M005)","2018-07-27T10:00:01",0.0,23.088,61.5,0.6474,15.3],
    [167,"AB07CD0350","WETLAND SAL01","SALINE (FEN)",56.573904,-111.277774,"HOBO Rain Gauge Data Logger - RG3","HOBO Temperature/RH Smart Sensor (S-THB-M002)","Soil Moisture Smart Sensor - EC5 (S-SMC-M005)","2018-07-27T11:00:01",0.0,24.146,56.7,0.6474,15.0],
    [168,"AB07CD0350","WETLAND SAL01","SALINE (FEN)",56.573904,-111.277774,"HOBO Rain Gauge Data Logger - RG3","HOBO Temperature/RH Smart Sensor (S-THB-M002)","Soil Moisture Smart Sensor - EC5 (S-SMC-M005)","2018-07-27T12:00:01",0.0,25.477,52.4,0.6474,15.0],
    [169,"AB07CD0350","WETLAND SAL01","SALINE (FEN)",56.573904,-111.277774,"HOBO Rain Gauge Data Logger - RG3","HOBO Temperature/RH Smart Sensor (S-THB-M002)","Soil Moisture Smart Sensor - EC5 (S-SMC-M005)","2018-07-27T13:00:01",0.0,26.769,45.1,0.6474,13.9],
    [170,"AB07CD0350","WETLAND SAL01","SALINE (FEN)",56.573904,-111.277774,"HOBO Rain Gauge Data Logger - RG3","HOBO Temperature/RH Smart Sensor (S-THB-M002)","Soil Moisture Smart Sensor - EC5 (S-SMC-M005)","2018-07-27T14:00:01",0.0,25.55,41.9,0.6474,11.7],
    [171,"AB07CD0350","WETLAND SAL01","SALINE (FEN)",56.573904,-111.277774,"HOBO Rain Gauge Data Logger - RG3","HOBO Temperature/RH Smart Sensor (S-THB-M002)","Soil Moisture Smart Sensor - EC5 (S-SMC-M005)","2018-07-27T15:00:01",0.0,26.182,43.3,0.6474,12.7],
    [172,"AB07CD0350","WETLAND SAL01","SALINE (FEN)",56.573904,-111.277774,"HOBO Rain Gauge Data Logger - RG3","HOBO Temperature/RH Smart Sensor (S-THB-M002)","Soil Moisture Smart Sensor - EC5 (S-SMC-M005)","2018-07-27T16:00:01",0.0,24.677,45.0,0.6474,12.0],
    [173,"AB07CD0350","WETLAND SAL01","SALINE (FEN)",56.573904,-111.277774,"HOBO Rain Gauge Data Logger - RG3","HOBO Temperature/RH Smart Sensor (S-THB-M002)","Soil Moisture Smart Sensor - EC5 (S-SMC-M005)","2018-07-27T17:00:01",0.0,26.989,43.0,0.6474,13.4],
    [174,"AB07CD0350","WETLAND SAL01","SALINE (FEN)",56.573904,-111.277774,"HOBO Rain Gauge Data Logger - RG3","HOBO Temperature/RH Smart Sensor (S-THB-M002)","Soil Moisture Smart Sensor - EC5 (S-SMC-M005)","2018-07-27T18:00:01",0.0,27.136,37.0,0.6474,11.2],
    [175,"AB07CD0350","WETLAND SAL01","SALINE (FEN)",56.573904,-111.277774,"HOBO Rain Gauge Data Logger - RG3","HOBO Temperature/RH Smart Sensor (S-THB-M002)","Soil Moisture Smart Sensor - EC5 (S-SMC-M005)","2018-07-27T19:00:01",0.0,26.818,37.0,0.6482,10.9],
    [176,"AB07CD0350","WETLAND SAL01","SALINE (FEN)",56.573904,-111.277774,"HOBO Rain Gauge Data Logger - RG3","HOBO Temperature/RH Smart Sensor (S-THB-M002)","Soil Moisture Smart Sensor - EC5 (S-SMC-M005)","2018-07-27T20:00:01",0.0,25.525,37.3,0.6474,9.9],
    [177,"AB07CD0350","WETLAND SAL01","SALINE (FEN)",56.573904,-111.277774,"HOBO Rain Gauge Data Logger - RG3","HOBO Temperature/RH Smart Sensor (S-THB-M002)","Soil Moisture Smart Sensor - EC5 (S-SMC-M005)","2018-07-27T21:00:01",0.0,22.753,44.4,0.6482,10.0],
    [178,"AB07CD0350","WETLAND SAL01","SALINE (FEN)",56.573904,-111.277774,"HOBO Rain Gauge Data Logger - RG3","HOBO Temperature/RH Smart Sensor (S-THB-M002)","Soil Moisture Smart Sensor - EC5 (S-SMC-M005)","2018-07-27T22:00:01",0.0,19.674,54.4,0.6482,10.2],
    [179,"AB07CD0350","WETLAND SAL01","SALINE (FEN)",56.573904,-111.277774,"HOBO Rain Gauge Data Logger - RG3","HOBO Temperature/RH Smart Sensor (S-THB-M002)","Soil Moisture Smart Sensor - EC5 (S-SMC-M005)","2018-07-27T23:00:01",0.0,18.057,62.5,0.6482,10.8],
    [180,"AB07CD0350","WETLAND SAL01","SALINE (FEN)",56.573904,-111.277774,"HOBO Rain Gauge Data Logger - RG3","HOBO Temperature/RH Smart Sensor (S-THB-M002)","Soil Moisture Smart Sensor - EC5 (S-SMC-M005)","2018-07-28T00:00:01",0.0,18.842,62.2,0.6482,11.5],
    [181,"AB07CD0350","WETLAND SAL01","SALINE (FEN)",56.573904,-111.277774,"HOBO Rain Gauge Data Logger - RG3","HOBO Temperature/RH Smart Sensor (S-THB-M002)","Soil Moisture Smart Sensor - EC5 (S-SMC-M005)","2018-07-28T01:00:01",0.0,17.51,62.8,0.6482,10.4],
    [182,"AB07CD0350","WETLAND SAL01","SALINE (FEN)",56.573904,-111.277774,"HOBO Rain Gauge Data Logger - RG3","HOBO Temperature/RH Smart Sensor (S-THB-M002)","Soil Moisture Smart Sensor - EC5 (S-SMC-M005)","2018-07-28T02:00:01",0.0,17.534,66.9,0.6482,11.3],
    [183,"AB07CD0350","WETLAND SAL01","SALINE (FEN)",56.573904,-111.277774,"HOBO Rain Gauge Data Logger - RG3","HOBO Temperature/RH Smart Sensor (S-THB-M002)","Soil Moisture Smart Sensor - EC5 (S-SMC-M005)","2018-07-28T03:00:01",0.0,16.915,66.7,0.6482,10.7],
    [184,"AB07CD0350","WETLAND SAL01","SALINE (FEN)",56.573904,-111.277774,"HOBO Rain Gauge Data Logger - RG3","HOBO Temperature/RH Smart Sensor (S-THB-M002)","Soil Moisture Smart Sensor - EC5 (S-SMC-M005)","2018-07-28T04:00:01",0.0,12.944,75.3,0.6482,8.7],
    [185,"AB07CD0350","WETLAND SAL01","SALINE (FEN)",56.573904,-111.277774,"HOBO Rain Gauge Data Logger - RG3","HOBO Temperature/RH Smart Sensor (S-THB-M002)","Soil Moisture Smart Sensor - EC5 (S-SMC-M005)","2018-07-28T05:00:01",0.0,11.929,87.9,0.6482,10.0],
    [186,"AB07CD0350","WETLAND SAL01","SALINE (FEN)",56.573904,-111.277774,"HOBO Rain Gauge Data Logger - RG3","HOBO Temperature/RH Smart Sensor (S-THB-M002)","Soil Moisture Smart Sensor - EC5 (S-SMC-M005)","2018-07-28T06:00:01",0.0,11.589,90.4,0.6482,10.1],
    [187,"AB07CD0350","WETLAND SAL01","SALINE (FEN)",56.573904,-111.277774,"HOBO Rain Gauge Data Logger - RG3","HOBO Temperature/RH Smart Sensor (S-THB-M002)","Soil Moisture Smart Sensor - EC5 (S-SMC-M005)","2018-07-28T07:00:01",0.0,18.747,75.7,0.6482,14.4],
    [188,"AB07CD0350","WETLAND SAL01","SALINE (FEN)",56.573904,-111.277774,"HOBO Rain Gauge Data Logger - RG3","HOBO Temperature/RH Smart Sensor (S-THB-M002)","Soil Moisture Smart Sensor - EC5 (S-SMC-M005)","2018-07-28T08:00:01",0.0,20.746,65.3,0.6482,14.0],
    [189,"AB07CD0350","WETLAND SAL01","SALINE (FEN)",56.573904,-111.277774,"HOBO Rain Gauge Data Logger - RG3","HOBO Temperature/RH Smart Sensor (S-THB-M002)","Soil Moisture Smart Sensor - EC5 (S-SMC-M005)","2018-07-28T09:00:01",0.0,22.561,57.9,0.6482,13.9],
    [190,"AB07CD0350","WETLAND SAL01","SALINE (FEN)",56.573904,-111.277774,"HOBO Rain Gauge Data Logger - RG3","HOBO Temperature/RH Smart Sensor (S-THB-M002)","Soil Moisture Smart Sensor - EC5 (S-SMC-M005)","2018-07-28T10:00:01",0.0,24.557,53.3,0.6482,14.5],
    [191,"AB07CD0350","WETLAND SAL01","SALINE (FEN)",56.573904,-111.277774,"HOBO Rain Gauge Data Logger - RG3","HOBO Temperature/RH Smart Sensor (S-THB-M002)","Soil Moisture Smart Sensor - EC5 (S-SMC-M005)","2018-07-28T11:00:01",0.0,26.109,48.3,0.6489,14.4],
    [192,"AB07CD0350","WETLAND SAL01","SALINE (FEN)",56.573904,-111.277774,"HOBO Rain Gauge Data Logger - RG3","HOBO Temperature/RH Smart Sensor (S-THB-M002)","Soil Moisture Smart Sensor - EC5 (S-SMC-M005)","2018-07-28T12:00:01",0.0,27.677,44.6,0.6482,14.5],
    [193,"AB07CD0350","WETLAND SAL01","SALINE (FEN)",56.573904,-111.277774,"HOBO Rain Gauge Data Logger - RG3","HOBO Temperature/RH Smart Sensor (S-THB-M002)","Soil Moisture Smart Sensor - EC5 (S-SMC-M005)","2018-07-28T13:00:01",0.0,28.642,42.6,0.6482,14.7],
    [194,"AB07CD0350","WETLAND SAL01","SALINE (FEN)",56.573904,-111.277774,"HOBO Rain Gauge Data Logger - RG3","HOBO Temperature/RH Smart Sensor (S-THB-M002)","Soil Moisture Smart Sensor - EC5 (S-SMC-M005)","2018-07-28T14:00:01",0.0,29.865,37.6,0.6489,13.9],
    [195,"AB07CD0350","WETLAND SAL01","SALINE (FEN)",56.573904,-111.277774,"HOBO Rain Gauge Data Logger - RG3","HOBO Temperature/RH Smart Sensor (S-THB-M002)","Soil Moisture Smart Sensor - EC5 (S-SMC-M005)","2018-07-28T15:00:01",0.0,29.916,33.6,0.6489,12.2],
    [196,"AB07CD0350","WETLAND SAL01","SALINE (FEN)",56.573904,-111.277774,"HOBO Rain Gauge Data Logger - RG3","HOBO Temperature/RH Smart Sensor (S-THB-M002)","Soil Moisture Smart Sensor - EC5 (S-SMC-M005)","2018-07-28T16:00:01",0.0,29.115,33.4,0.6482,11.4],
    [197,"AB07CD0350","WETLAND SAL01","SALINE (FEN)",56.573904,-111.277774,"HOBO Rain Gauge Data Logger - RG3","HOBO Temperature/RH Smart Sensor (S-THB-M002)","Soil Moisture Smart Sensor - EC5 (S-SMC-M005)","2018-07-28T17:00:01",0.0,30.824,34.6,0.6489,13.4],
    [198,"AB07CD0350","WETLAND SAL01","SALINE (FEN)",56.573904,-111.277774,"HOBO Rain Gauge Data Logger - RG3","HOBO Temperature/RH Smart Sensor (S-THB-M002)","Soil Moisture Smart Sensor - EC5 (S-SMC-M005)","2018-07-28T18:00:01",0.0,31.077,30.2,0.6489,11.6],
    [199,"AB07CD0350","WETLAND SAL01","SALINE (FEN)",56.573904,-111.277774,"HOBO Rain Gauge Data Logger - RG3","HOBO Temperature/RH Smart Sensor (S-THB-M002)","Soil Moisture Smart Sensor - EC5 (S-SMC-M005)","2018-07-28T19:00:01",0.0,30.293,33.0,0.6489,12.2],
    [200,"AB07CD0350","WETLAND SAL01","SALINE (FEN)",56.573904,-111.277774,"HOBO Rain Gauge Data Logger - RG3","HOBO Temperature/RH Smart Sensor (S-THB-M002)","Soil Moisture Smart Sensor - EC5 (S-SMC-M005)","2018-07-28T20:00:01",0.0,28.791,34.8,0.6482,11.7],
    [201,"AB07CD0350","WETLAND SAL01","SALINE (FEN)",56.573904,-111.277774,"HOBO Rain Gauge Data Logger - RG3","HOBO Temperature/RH Smart Sensor (S-THB-M002)","Soil Moisture Smart Sensor - EC5 (S-SMC-M005)","2018-07-28T21:00:01",0.0,24.581,42.8,0.6489,11.1],
    [202,"AB07CD0350","WETLAND SAL01","SALINE (FEN)",56.573904,-111.277774,"HOBO Rain Gauge Data Logger - RG3","HOBO Temperature/RH Smart Sensor (S-THB-M002)","Soil Moisture Smart Sensor - EC5 (S-SMC-M005)","2018-07-28T22:00:01",0.0,19.722,66.5,0.6489,13.3],
    [203,"AB07CD0350","WETLAND SAL01","SALINE (FEN)",56.573904,-111.277774,"HOBO Rain Gauge Data Logger - RG3","HOBO Temperature/RH Smart Sensor (S-THB-M002)","Soil Moisture Smart Sensor - EC5 (S-SMC-M005)","2018-07-28T23:00:01",0.0,18.509,75.7,0.6489,14.2],
    [204,"AB07CD0350","WETLAND SAL01","SALINE (FEN)",56.573904,-111.277774,"HOBO Rain Gauge Data Logger - RG3","HOBO Temperature/RH Smart Sensor (S-THB-M002)","Soil Moisture Smart Sensor - EC5 (S-SMC-M005)","2018-07-29T00:00:01",0.0,17.201,82.6,0.6489,14.2],
    [205,"AB07CD0350","WETLAND SAL01","SALINE (FEN)",56.573904,-111.277774,"HOBO Rain Gauge Data Logger - RG3","HOBO Temperature/RH Smart Sensor (S-THB-M002)","Soil Moisture Smart Sensor - EC5 (S-SMC-M005)","2018-07-29T01:00:01",0.0,20.913,66.9,0.6496,14.6],
    [206,"AB07CD0350","WETLAND SAL01","SALINE (FEN)",56.573904,-111.277774,"HOBO Rain Gauge Data Logger - RG3","HOBO Temperature/RH Smart Sensor (S-THB-M002)","Soil Moisture Smart Sensor - EC5 (S-SMC-M005)","2018-07-29T02:00:01",0.0,20.484,62.3,0.6496,13.0],
    [207,"AB07CD0350","WETLAND SAL01","SALINE (FEN)",56.573904,-111.277774,"HOBO Rain Gauge Data Logger - RG3","HOBO Temperature/RH Smart Sensor (S-THB-M002)","Soil Moisture Smart Sensor - EC5 (S-SMC-M005)","2018-07-29T03:00:01",0.0,19.865,64.1,0.6496,12.9],
    [208,"AB07CD0350","WETLAND SAL01","SALINE (FEN)",56.573904,-111.277774,"HOBO Rain Gauge Data Logger - RG3","HOBO Temperature/RH Smart Sensor (S-THB-M002)","Soil Moisture Smart Sensor - EC5 (S-SMC-M005)","2018-07-29T04:00:01",0.0,19.698,67.2,0.6496,13.5],
    [209,"AB07CD0350","WETLAND SAL01","SALINE (FEN)",56.573904,-111.277774,"HOBO Rain Gauge Data Logger - RG3","HOBO Temperature/RH Smart Sensor (S-THB-M002)","Soil Moisture Smart Sensor - EC5 (S-SMC-M005)","2018-07-29T05:00:01",0.0,17.415,69.8,0.6496,11.9],
    [210,"AB07CD0350","WETLAND SAL01","SALINE (FEN)",56.573904,-111.277774,"HOBO Rain Gauge Data Logger - RG3","HOBO Temperature/RH Smart Sensor (S-THB-M002)","Soil Moisture Smart Sensor - EC5 (S-SMC-M005)","2018-07-29T06:00:01",0.0,16.368,76.9,0.6496,12.3],
    [211,"AB07CD0350","WETLAND SAL01","SALINE (FEN)",56.573904,-111.277774,"HOBO Rain Gauge Data Logger - RG3","HOBO Temperature/RH Smart Sensor (S-THB-M002)","Soil Moisture Smart Sensor - EC5 (S-SMC-M005)","2018-07-29T07:00:01",0.0,18.271,78.5,0.6496,14.5],
    [212,"AB07CD0350","WETLAND SAL01","SALINE (FEN)",56.573904,-111.277774,"HOBO Rain Gauge Data Logger - RG3","HOBO Temperature/RH Smart Sensor (S-THB-M002)","Soil Moisture Smart Sensor - EC5 (S-SMC-M005)","2018-07-29T08:00:01",0.0,18.961,74.8,0.6496,14.4],
    [213,"AB07CD0350","WETLAND SAL01","SALINE (FEN)",56.573904,-111.277774,"HOBO Rain Gauge Data Logger - RG3","HOBO Temperature/RH Smart Sensor (S-THB-M002)","Soil Moisture Smart Sensor - EC5 (S-SMC-M005)","2018-07-29T09:00:01",0.0,19.984,71.2,0.6496,14.6],
    [214,"AB07CD0350","WETLAND SAL01","SALINE (FEN)",56.573904,-111.277774,"HOBO Rain Gauge Data Logger - RG3","HOBO Temperature/RH Smart Sensor (S-THB-M002)","Soil Moisture Smart Sensor - EC5 (S-SMC-M005)","2018-07-29T10:00:01",0.0,21.27,67.0,0.6496,14.9],
    [215,"AB07CD0350","WETLAND SAL01","SALINE (FEN)",56.573904,-111.277774,"HOBO Rain Gauge Data Logger - RG3","HOBO Temperature/RH Smart Sensor (S-THB-M002)","Soil Moisture Smart Sensor - EC5 (S-SMC-M005)","2018-07-29T11:00:01",0.0,23.088,63.1,0.6496,15.7],
    [216,"AB07CD0350","WETLAND SAL01","SALINE (FEN)",56.573904,-111.277774,"HOBO Rain Gauge Data Logger - RG3","HOBO Temperature/RH Smart Sensor (S-THB-M002)","Soil Moisture Smart Sensor - EC5 (S-SMC-M005)","2018-07-29T12:00:01",0.0,23.448,61.7,0.6496,15.7],
    [217,"AB07CD0350","WETLAND SAL01","SALINE (FEN)",56.573904,-111.277774,"HOBO Rain Gauge Data Logger - RG3","HOBO Temperature/RH Smart Sensor (S-THB-M002)","Soil Moisture Smart Sensor - EC5 (S-SMC-M005)","2018-07-29T13:00:01",0.0,24.267,61.8,0.6496,16.5],
    [218,"AB07CD0350","WETLAND SAL01","SALINE (FEN)",56.573904,-111.277774,"HOBO Rain Gauge Data Logger - RG3","HOBO Temperature/RH Smart Sensor (S-THB-M002)","Soil Moisture Smart Sensor - EC5 (S-SMC-M005)","2018-07-29T14:00:01",0.0,24.436,59.4,0.6496,16.0],
    [219,"AB07CD0350","WETLAND SAL01","SALINE (FEN)",56.573904,-111.277774,"HOBO Rain Gauge Data Logger - RG3","HOBO Temperature/RH Smart Sensor (S-THB-M002)","Soil Moisture Smart Sensor - EC5 (S-SMC-M005)","2018-07-29T15:00:01",0.0,24.002,64.5,0.6496,16.9],
    [220,"AB07CD0350","WETLAND SAL01","SALINE (FEN)",56.573904,-111.277774,"HOBO Rain Gauge Data Logger - RG3","HOBO Temperature/RH Smart Sensor (S-THB-M002)","Soil Moisture Smart Sensor - EC5 (S-SMC-M005)","2018-07-29T16:00:01",0.0,24.726,62.3,0.6496,17.1],
    [221,"AB07CD0350","WETLAND SAL01","SALINE (FEN)",56.573904,-111.277774,"HOBO Rain Gauge Data Logger - RG3","HOBO Temperature/RH Smart Sensor (S-THB-M002)","Soil Moisture Smart Sensor - EC5 (S-SMC-M005)","2018-07-29T17:00:01",0.0,25.162,57.4,0.6496,16.2],
    [222,"AB07CD0350","WETLAND SAL01","SALINE (FEN)",56.573904,-111.277774,"HOBO Rain Gauge Data Logger - RG3","HOBO Temperature/RH Smart Sensor (S-THB-M002)","Soil Moisture Smart Sensor - EC5 (S-SMC-M005)","2018-07-29T18:00:01",0.0,25.113,55.2,0.6496,15.5],
    [223,"AB07CD0350","WETLAND SAL01","SALINE (FEN)",56.573904,-111.277774,"HOBO Rain Gauge Data Logger - RG3","HOBO Temperature/RH Smart Sensor (S-THB-M002)","Soil Moisture Smart Sensor - EC5 (S-SMC-M005)","2018-07-29T19:00:01",0.0,25.841,50.2,0.6496,14.7],
    [224,"AB07CD0350","WETLAND SAL01","SALINE (FEN)",56.573904,-111.277774,"HOBO Rain Gauge Data Logger - RG3","HOBO Temperature/RH Smart Sensor (S-THB-M002)","Soil Moisture Smart Sensor - EC5 (S-SMC-M005)","2018-07-29T20:00:01",0.0,24.798,50.3,0.6496,13.8],
    [225,"AB07CD0350","WETLAND SAL01","SALINE (FEN)",56.573904,-111.277774,"HOBO Rain Gauge Data Logger - RG3","HOBO Temperature/RH Smart Sensor (S-THB-M002)","Soil Moisture Smart Sensor - EC5 (S-SMC-M005)","2018-07-29T21:00:01",0.0,23.088,55.4,0.6496,13.7],
    [226,"AB07CD0350","WETLAND SAL01","SALINE (FEN)",56.573904,-111.277774,"HOBO Rain Gauge Data Logger - RG3","HOBO Temperature/RH Smart Sensor (S-THB-M002)","Soil Moisture Smart Sensor - EC5 (S-SMC-M005)","2018-07-29T22:00:01",0.0,17.867,64.5,0.6503,11.1],
    [227,"AB07CD0350","WETLAND SAL01","SALINE (FEN)",56.573904,-111.277774,"HOBO Rain Gauge Data Logger - RG3","HOBO Temperature/RH Smart Sensor (S-THB-M002)","Soil Moisture Smart Sensor - EC5 (S-SMC-M005)","2018-07-29T23:00:01",0.0,18.057,79.9,0.6503,14.6],
    [228,"AB07CD0350","WETLAND SAL01","SALINE (FEN)",56.573904,-111.277774,"HOBO Rain Gauge Data Logger - RG3","HOBO Temperature/RH Smart Sensor (S-THB-M002)","Soil Moisture Smart Sensor - EC5 (S-SMC-M005)","2018-07-30T00:00:01",0.0,14.816,76.6,0.6496,10.8],
    [229,"AB07CD0350","WETLAND SAL01","SALINE (FEN)",56.573904,-111.277774,"HOBO Rain Gauge Data Logger - RG3","HOBO Temperature/RH Smart Sensor (S-THB-M002)","Soil Moisture Smart Sensor - EC5 (S-SMC-M005)","2018-07-30T01:00:01",0.0,12.871,87.1,0.6503,10.8],
    [230,"AB07CD0350","WETLAND SAL01","SALINE (FEN)",56.573904,-111.277774,"HOBO Rain Gauge Data Logger - RG3","HOBO Temperature/RH Smart Sensor (S-THB-M002)","Soil Moisture Smart Sensor - EC5 (S-SMC-M005)","2018-07-30T02:00:01",0.0,12.171,91.1,0.6503,10.8],
    [231,"AB07CD0350","WETLAND SAL01","SALINE (FEN)",56.573904,-111.277774,"HOBO Rain Gauge Data Logger - RG3","HOBO Temperature/RH Smart Sensor (S-THB-M002)","Soil Moisture Smart Sensor - EC5 (S-SMC-M005)","2018-07-30T03:00:01",0.0,10.956,92.2,0.6503,9.8],
    [232,"AB07CD0350","WETLAND SAL01","SALINE (FEN)",56.573904,-111.277774,"HOBO Rain Gauge Data Logger - RG3","HOBO Temperature/RH Smart Sensor (S-THB-M002)","Soil Moisture Smart Sensor - EC5 (S-SMC-M005)","2018-07-30T04:00:01",0.0,11.516,93.7,0.6503,10.5],
    [233,"AB07CD0350","WETLAND SAL01","SALINE (FEN)",56.573904,-111.277774,"HOBO Rain Gauge Data Logger - RG3","HOBO Temperature/RH Smart Sensor (S-THB-M002)","Soil Moisture Smart Sensor - EC5 (S-SMC-M005)","2018-07-30T05:00:01",0.0,13.473,93.4,0.6503,12.4],
    [234,"AB07CD0350","WETLAND SAL01","SALINE (FEN)",56.573904,-111.277774,"HOBO Rain Gauge Data Logger - RG3","HOBO Temperature/RH Smart Sensor (S-THB-M002)","Soil Moisture Smart Sensor - EC5 (S-SMC-M005)","2018-07-30T06:00:01",1.0,13.978,88.9,0.6496,12.2],
    [235,"AB07CD0350","WETLAND SAL01","SALINE (FEN)",56.573904,-111.277774,"HOBO Rain Gauge Data Logger - RG3","HOBO Temperature/RH Smart Sensor (S-THB-M002)","Soil Moisture Smart Sensor - EC5 (S-SMC-M005)","2018-07-30T07:00:01",3.2,13.714,92.6,0.6503,12.6],
    [236,"AB07CD0350","WETLAND SAL01","SALINE (FEN)",56.573904,-111.277774,"HOBO Rain Gauge Data Logger - RG3","HOBO Temperature/RH Smart Sensor (S-THB-M002)","Soil Moisture Smart Sensor - EC5 (S-SMC-M005)","2018-07-30T08:00:01",0.2,13.81,94.8,0.6503,13.0],
    [237,"AB07CD0350","WETLAND SAL01","SALINE (FEN)",56.573904,-111.277774,"HOBO Rain Gauge Data Logger - RG3","HOBO Temperature/RH Smart Sensor (S-THB-M002)","Soil Moisture Smart Sensor - EC5 (S-SMC-M005)","2018-07-30T09:00:01",0.0,14.218,95.6,0.6503,13.5],
    [238,"AB07CD0350","WETLAND SAL01","SALINE (FEN)",56.573904,-111.277774,"HOBO Rain Gauge Data Logger - RG3","HOBO Temperature/RH Smart Sensor (S-THB-M002)","Soil Moisture Smart Sensor - EC5 (S-SMC-M005)","2018-07-30T10:00:01",0.2,14.05,96.2,0.6503,13.5],
    [239,"AB07CD0350","WETLAND SAL01","SALINE (FEN)",56.573904,-111.277774,"HOBO Rain Gauge Data Logger - RG3","HOBO Temperature/RH Smart Sensor (S-THB-M002)","Soil Moisture Smart Sensor - EC5 (S-SMC-M005)","2018-07-30T11:00:01",1.6,14.721,96.5,0.6503,14.2],
    [240,"AB07CD0350","WETLAND SAL01","SALINE (FEN)",56.573904,-111.277774,"HOBO Rain Gauge Data Logger - RG3","HOBO Temperature/RH Smart Sensor (S-THB-M002)","Soil Moisture Smart Sensor - EC5 (S-SMC-M005)","2018-07-30T12:00:01",0.2,15.843,94.7,0.6503,15.0],
    [241,"AB07CD0350","WETLAND SAL01","SALINE (FEN)",56.573904,-111.277774,"HOBO Rain Gauge Data Logger - RG3","HOBO Temperature/RH Smart Sensor (S-THB-M002)","Soil Moisture Smart Sensor - EC5 (S-SMC-M005)","2018-07-30T13:00:01",0.0,16.558,92.5,0.6503,15.4],
    [242,"AB07CD0350","WETLAND SAL01","SALINE (FEN)",56.573904,-111.277774,"HOBO Rain Gauge Data Logger - RG3","HOBO Temperature/RH Smart Sensor (S-THB-M002)","Soil Moisture Smart Sensor - EC5 (S-SMC-M005)","2018-07-30T14:00:01",0.0,17.867,89.5,0.6503,16.1],
    [243,"AB07CD0350","WETLAND SAL01","SALINE (FEN)",56.573904,-111.277774,"HOBO Rain Gauge Data Logger - RG3","HOBO Temperature/RH Smart Sensor (S-THB-M002)","Soil Moisture Smart Sensor - EC5 (S-SMC-M005)","2018-07-30T15:00:01",0.0,19.389,84.0,0.6503,16.6],
    [244,"AB07CD0350","WETLAND SAL01","SALINE (FEN)",56.573904,-111.277774,"HOBO Rain Gauge Data Logger - RG3","HOBO Temperature/RH Smart Sensor (S-THB-M002)","Soil Moisture Smart Sensor - EC5 (S-SMC-M005)","2018-07-30T16:00:01",0.0,20.293,74.5,0.6503,15.6],
    [245,"AB07CD0350","WETLAND SAL01","SALINE (FEN)",56.573904,-111.277774,"HOBO Rain Gauge Data Logger - RG3","HOBO Temperature/RH Smart Sensor (S-THB-M002)","Soil Moisture Smart Sensor - EC5 (S-SMC-M005)","2018-07-30T17:00:01",0.0,20.984,69.5,0.6503,15.2],
    [246,"AB07CD0350","WETLAND SAL01","SALINE (FEN)",56.573904,-111.277774,"HOBO Rain Gauge Data Logger - RG3","HOBO Temperature/RH Smart Sensor (S-THB-M002)","Soil Moisture Smart Sensor - EC5 (S-SMC-M005)","2018-07-30T18:00:01",0.0,22.13,63.8,0.6503,15.0],
    [247,"AB07CD0350","WETLAND SAL01","SALINE (FEN)",56.573904,-111.277774,"HOBO Rain Gauge Data Logger - RG3","HOBO Temperature/RH Smart Sensor (S-THB-M002)","Soil Moisture Smart Sensor - EC5 (S-SMC-M005)","2018-07-30T19:00:01",0.0,22.441,54.4,0.6503,12.8],
    [248,"AB07CD0350","WETLAND SAL01","SALINE (FEN)",56.573904,-111.277774,"HOBO Rain Gauge Data Logger - RG3","HOBO Temperature/RH Smart Sensor (S-THB-M002)","Soil Moisture Smart Sensor - EC5 (S-SMC-M005)","2018-07-30T20:00:01",0.0,21.891,53.3,0.6496,12.0],
    [249,"AB07CD0350","WETLAND SAL01","SALINE (FEN)",56.573904,-111.277774,"HOBO Rain Gauge Data Logger - RG3","HOBO Temperature/RH Smart Sensor (S-THB-M002)","Soil Moisture Smart Sensor - EC5 (S-SMC-M005)","2018-07-30T21:00:01",0.0,19.793,56.3,0.6503,10.9],
    [250,"AB07CD0350","WETLAND SAL01","SALINE (FEN)",56.573904,-111.277774,"HOBO Rain Gauge Data Logger - RG3","HOBO Temperature/RH Smart Sensor (S-THB-M002)","Soil Moisture Smart Sensor - EC5 (S-SMC-M005)","2018-07-30T22:00:01",0.0,17.415,63.6,0.6503,10.5],
    [251,"AB07CD0350","WETLAND SAL01","SALINE (FEN)",56.573904,-111.277774,"HOBO Rain Gauge Data Logger - RG3","HOBO Temperature/RH Smart Sensor (S-THB-M002)","Soil Moisture Smart Sensor - EC5 (S-SMC-M005)","2018-07-30T23:00:01",0.0,16.034,69.5,0.6503,10.5],
    [252,"AB07CD0350","WETLAND SAL01","SALINE (FEN)",56.573904,-111.277774,"HOBO Rain Gauge Data Logger - RG3","HOBO Temperature/RH Smart Sensor (S-THB-M002)","Soil Moisture Smart Sensor - EC5 (S-SMC-M005)","2018-07-31T00:00:01",0.0,13.834,76.6,0.6503,9.8],
    [253,"AB07CD0350","WETLAND SAL01","SALINE (FEN)",56.573904,-111.277774,"HOBO Rain Gauge Data Logger - RG3","HOBO Temperature/RH Smart Sensor (S-THB-M002)","Soil Moisture Smart Sensor - EC5 (S-SMC-M005)","2018-07-31T01:00:01",0.0,14.625,82.1,0.6503,11.6],
    [254,"AB07CD0350","WETLAND SAL01","SALINE (FEN)",56.573904,-111.277774,"HOBO Rain Gauge Data Logger - RG3","HOBO Temperature/RH Smart Sensor (S-THB-M002)","Soil Moisture Smart Sensor - EC5 (S-SMC-M005)","2018-07-31T02:00:01",0.0,13.546,79.5,0.6503,10.1],
    [255,"AB07CD0350","WETLAND SAL01","SALINE (FEN)",56.573904,-111.277774,"HOBO Rain Gauge Data Logger - RG3","HOBO Temperature/RH Smart Sensor (S-THB-M002)","Soil Moisture Smart Sensor - EC5 (S-SMC-M005)","2018-07-31T03:00:01",0.0,10.59,85.5,0.6503,8.3],
    [256,"AB07CD0350","WETLAND SAL01","SALINE (FEN)",56.573904,-111.277774,"HOBO Rain Gauge Data Logger - RG3","HOBO Temperature/RH Smart Sensor (S-THB-M002)","Soil Moisture Smart Sensor - EC5 (S-SMC-M005)","2018-07-31T04:00:01",0.0,10.467,92.5,0.6503,9.3],
    [257,"AB07CD0350","WETLAND SAL01","SALINE (FEN)",56.573904,-111.277774,"HOBO Rain Gauge Data Logger - RG3","HOBO Temperature/RH Smart Sensor (S-THB-M002)","Soil Moisture Smart Sensor - EC5 (S-SMC-M005)","2018-07-31T05:00:01",0.0,9.879,94.4,0.6503,9.0],
    [258,"AB07CD0350","WETLAND SAL01","SALINE (FEN)",56.573904,-111.277774,"HOBO Rain Gauge Data Logger - RG3","HOBO Temperature/RH Smart Sensor (S-THB-M002)","Soil Moisture Smart Sensor - EC5 (S-SMC-M005)","2018-07-31T06:00:01",0.0,10.32,94.9,0.6503,9.5],
    [259,"AB07CD0350","WETLAND SAL01","SALINE (FEN)",56.573904,-111.277774,"HOBO Rain Gauge Data Logger - RG3","HOBO Temperature/RH Smart Sensor (S-THB-M002)","Soil Moisture Smart Sensor - EC5 (S-SMC-M005)","2018-07-31T07:00:01",0.0,11.832,90.6,0.6503,10.4],
    [260,"AB07CD0350","WETLAND SAL01","SALINE (FEN)",56.573904,-111.277774,"HOBO Rain Gauge Data Logger - RG3","HOBO Temperature/RH Smart Sensor (S-THB-M002)","Soil Moisture Smart Sensor - EC5 (S-SMC-M005)","2018-07-31T08:00:01",0.0,12.243,88.7,0.6496,10.4],
    [261,"AB07CD0350","WETLAND SAL01","SALINE (FEN)",56.573904,-111.277774,"HOBO Rain Gauge Data Logger - RG3","HOBO Temperature/RH Smart Sensor (S-THB-M002)","Soil Moisture Smart Sensor - EC5 (S-SMC-M005)","2018-07-31T09:00:01",0.0,13.329,86.4,0.6496,11.1],
    [262,"AB07CD0350","WETLAND SAL01","SALINE (FEN)",56.573904,-111.277774,"HOBO Rain Gauge Data Logger - RG3","HOBO Temperature/RH Smart Sensor (S-THB-M002)","Soil Moisture Smart Sensor - EC5 (S-SMC-M005)","2018-07-31T10:00:01",0.0,15.175,80.3,0.6496,11.8],
    [263,"AB07CD0350","WETLAND SAL01","SALINE (FEN)",56.573904,-111.277774,"HOBO Rain Gauge Data Logger - RG3","HOBO Temperature/RH Smart Sensor (S-THB-M002)","Soil Moisture Smart Sensor - EC5 (S-SMC-M005)","2018-07-31T11:00:01",0.0,16.392,72.2,0.6496,11.4],
    [264,"AB07CD0350","WETLAND SAL01","SALINE (FEN)",56.573904,-111.277774,"HOBO Rain Gauge Data Logger - RG3","HOBO Temperature/RH Smart Sensor (S-THB-M002)","Soil Moisture Smart Sensor - EC5 (S-SMC-M005)","2018-07-31T12:00:01",0.0,18.081,66.1,0.6496,11.7],
    [265,"AB07CD0350","WETLAND SAL01","SALINE (FEN)",56.573904,-111.277774,"HOBO Rain Gauge Data Logger - RG3","HOBO Temperature/RH Smart Sensor (S-THB-M002)","Soil Moisture Smart Sensor - EC5 (S-SMC-M005)","2018-07-31T13:00:01",0.0,19.436,62.3,0.6496,12.1],
    [266,"AB07CD0350","WETLAND SAL01","SALINE (FEN)",56.573904,-111.277774,"HOBO Rain Gauge Data Logger - RG3","HOBO Temperature/RH Smart Sensor (S-THB-M002)","Soil Moisture Smart Sensor - EC5 (S-SMC-M005)","2018-07-31T14:00:01",0.0,20.055,59.8,0.6496,12.0],
    [267,"AB07CD0350","WETLAND SAL01","SALINE (FEN)",56.573904,-111.277774,"HOBO Rain Gauge Data Logger - RG3","HOBO Temperature/RH Smart Sensor (S-THB-M002)","Soil Moisture Smart Sensor - EC5 (S-SMC-M005)","2018-07-31T15:00:01",0.0,22.465,57.6,0.6496,13.7],
    [268,"AB07CD0350","WETLAND SAL01","SALINE (FEN)",56.573904,-111.277774,"HOBO Rain Gauge Data Logger - RG3","HOBO Temperature/RH Smart Sensor (S-THB-M002)","Soil Moisture Smart Sensor - EC5 (S-SMC-M005)","2018-07-31T16:00:01",0.0,23.978,51.8,0.6496,13.5],
    [269,"AB07CD0350","WETLAND SAL01","SALINE (FEN)",56.573904,-111.277774,"HOBO Rain Gauge Data Logger - RG3","HOBO Temperature/RH Smart Sensor (S-THB-M002)","Soil Moisture Smart Sensor - EC5 (S-SMC-M005)","2018-07-31T17:00:01",0.0,24.436,47.9,0.6496,12.7],
    [270,"AB07CD0350","WETLAND SAL01","SALINE (FEN)",56.573904,-111.277774,"HOBO Rain Gauge Data Logger - RG3","HOBO Temperature/RH Smart Sensor (S-THB-M002)","Soil Moisture Smart Sensor - EC5 (S-SMC-M005)","2018-07-31T18:00:01",0.0,24.412,47.3,0.6496,12.5],
    [271,"AB07CD0350","WETLAND SAL01","SALINE (FEN)",56.573904,-111.277774,"HOBO Rain Gauge Data Logger - RG3","HOBO Temperature/RH Smart Sensor (S-THB-M002)","Soil Moisture Smart Sensor - EC5 (S-SMC-M005)","2018-07-31T19:00:01",0.0,23.905,47.9,0.6496,12.2],
    [272,"AB07CD0350","WETLAND SAL01","SALINE (FEN)",56.573904,-111.277774,"HOBO Rain Gauge Data Logger - RG3","HOBO Temperature/RH Smart Sensor (S-THB-M002)","Soil Moisture Smart Sensor - EC5 (S-SMC-M005)","2018-07-31T20:00:01",0.0,22.848,50.0,0.6496,11.9],
    [273,"AB07CD0350","WETLAND SAL01","SALINE (FEN)",56.573904,-111.277774,"HOBO Rain Gauge Data Logger - RG3","HOBO Temperature/RH Smart Sensor (S-THB-M002)","Soil Moisture Smart Sensor - EC5 (S-SMC-M005)","2018-07-31T21:00:01",0.0,21.413,53.0,0.6496,11.5],
    [274,"AB07CD0350","WETLAND SAL01","SALINE (FEN)",56.573904,-111.277774,"HOBO Rain Gauge Data Logger - RG3","HOBO Temperature/RH Smart Sensor (S-THB-M002)","Soil Moisture Smart Sensor - EC5 (S-SMC-M005)","2018-07-31T22:00:01",0.0,17.344,60.6,0.6496,9.7],
    [275,"AB07CD0350","WETLAND SAL01","SALINE (FEN)",56.573904,-111.277774,"HOBO Rain Gauge Data Logger - RG3","HOBO Temperature/RH Smart Sensor (S-THB-M002)","Soil Moisture Smart Sensor - EC5 (S-SMC-M005)","2018-07-31T23:00:01",0.0,16.058,70.7,0.6496,10.8],
    [276,"AB07CD0350","WETLAND SAL01","SALINE (FEN)",56.573904,-111.277774,"HOBO Rain Gauge Data Logger - RG3","HOBO Temperature/RH Smart Sensor (S-THB-M002)","Soil Moisture Smart Sensor - EC5 (S-SMC-M005)","2018-08-01T00:00:01",0.0,15.676,74.5,0.6496,11.2],
    [277,"AB07CD0350","WETLAND SAL01","SALINE (FEN)",56.573904,-111.277774,"HOBO Rain Gauge Data Logger - RG3","HOBO Temperature/RH Smart Sensor (S-THB-M002)","Soil Moisture Smart Sensor - EC5 (S-SMC-M005)","2018-08-01T01:00:01",0.0,17.605,77.9,0.6496,13.7],
    [278,"AB07CD0350","WETLAND SAL01","SALINE (FEN)",56.573904,-111.277774,"HOBO Rain Gauge Data Logger - RG3","HOBO Temperature/RH Smart Sensor (S-THB-M002)","Soil Moisture Smart Sensor - EC5 (S-SMC-M005)","2018-08-01T02:00:01",0.0,15.581,80.1,0.6496,12.2],
    [279,"AB07CD0350","WETLAND SAL01","SALINE (FEN)",56.573904,-111.277774,"HOBO Rain Gauge Data Logger - RG3","HOBO Temperature/RH Smart Sensor (S-THB-M002)","Soil Moisture Smart Sensor - EC5 (S-SMC-M005)","2018-08-01T03:00:01",0.0,12.775,88.6,0.6496,11.0],
    [280,"AB07CD0350","WETLAND SAL01","SALINE (FEN)",56.573904,-111.277774,"HOBO Rain Gauge Data Logger - RG3","HOBO Temperature/RH Smart Sensor (S-THB-M002)","Soil Moisture Smart Sensor - EC5 (S-SMC-M005)","2018-08-01T04:00:01",0.0,10.858,93.2,0.6503,9.8],
    [281,"AB07CD0350","WETLAND SAL01","SALINE (FEN)",56.573904,-111.277774,"HOBO Rain Gauge Data Logger - RG3","HOBO Temperature/RH Smart Sensor (S-THB-M002)","Soil Moisture Smart Sensor - EC5 (S-SMC-M005)","2018-08-01T05:00:01",0.0,11.516,94.8,0.6503,10.7],
    [282,"AB07CD0350","WETLAND SAL01","SALINE (FEN)",56.573904,-111.277774,"HOBO Rain Gauge Data Logger - RG3","HOBO Temperature/RH Smart Sensor (S-THB-M002)","Soil Moisture Smart Sensor - EC5 (S-SMC-M005)","2018-08-01T06:00:01",0.0,11.078,94.9,0.6496,10.3],
    [283,"AB07CD0350","WETLAND SAL01","SALINE (FEN)",56.573904,-111.277774,"HOBO Rain Gauge Data Logger - RG3","HOBO Temperature/RH Smart Sensor (S-THB-M002)","Soil Moisture Smart Sensor - EC5 (S-SMC-M005)","2018-08-01T07:00:01",0.0,13.642,94.6,0.6496,12.8],
    [284,"AB07CD0350","WETLAND SAL01","SALINE (FEN)",56.573904,-111.277774,"HOBO Rain Gauge Data Logger - RG3","HOBO Temperature/RH Smart Sensor (S-THB-M002)","Soil Moisture Smart Sensor - EC5 (S-SMC-M005)","2018-08-01T08:00:01",0.0,16.987,88.1,0.6496,15.0],
    [285,"AB07CD0350","WETLAND SAL01","SALINE (FEN)",56.573904,-111.277774,"HOBO Rain Gauge Data Logger - RG3","HOBO Temperature/RH Smart Sensor (S-THB-M002)","Soil Moisture Smart Sensor - EC5 (S-SMC-M005)","2018-08-01T09:00:01",0.0,18.913,81.9,0.6503,15.8],
    [286,"AB07CD0350","WETLAND SAL01","SALINE (FEN)",56.573904,-111.277774,"HOBO Rain Gauge Data Logger - RG3","HOBO Temperature/RH Smart Sensor (S-THB-M002)","Soil Moisture Smart Sensor - EC5 (S-SMC-M005)","2018-08-01T10:00:01",0.0,19.508,77.2,0.6503,15.4],
    [287,"AB07CD0350","WETLAND SAL01","SALINE (FEN)",56.573904,-111.277774,"HOBO Rain Gauge Data Logger - RG3","HOBO Temperature/RH Smart Sensor (S-THB-M002)","Soil Moisture Smart Sensor - EC5 (S-SMC-M005)","2018-08-01T11:00:01",0.0,19.912,76.5,0.6496,15.7],
    [288,"AB07CD0350","WETLAND SAL01","SALINE (FEN)",56.573904,-111.277774,"HOBO Rain Gauge Data Logger - RG3","HOBO Temperature/RH Smart Sensor (S-THB-M002)","Soil Moisture Smart Sensor - EC5 (S-SMC-M005)","2018-08-01T12:00:01",0.6,17.486,77.3,0.6496,13.5],
    [289,"AB07CD0350","WETLAND SAL01","SALINE (FEN)",56.573904,-111.277774,"HOBO Rain Gauge Data Logger - RG3","HOBO Temperature/RH Smart Sensor (S-THB-M002)","Soil Moisture Smart Sensor - EC5 (S-SMC-M005)","2018-08-01T13:00:01",1.4,17.748,88.1,0.6496,15.8],
    [290,"AB07CD0350","WETLAND SAL01","SALINE (FEN)",56.573904,-111.277774,"HOBO Rain Gauge Data Logger - RG3","HOBO Temperature/RH Smart Sensor (S-THB-M002)","Soil Moisture Smart Sensor - EC5 (S-SMC-M005)","2018-08-01T14:00:01",0.0,20.103,85.3,0.6496,17.6],
    [291,"AB07CD0350","WETLAND SAL01","SALINE (FEN)",56.573904,-111.277774,"HOBO Rain Gauge Data Logger - RG3","HOBO Temperature/RH Smart Sensor (S-THB-M002)","Soil Moisture Smart Sensor - EC5 (S-SMC-M005)","2018-08-01T15:00:01",0.0,21.939,78.0,0.6496,18.0],
    [292,"AB07CD0350","WETLAND SAL01","SALINE (FEN)",56.573904,-111.277774,"HOBO Rain Gauge Data Logger - RG3","HOBO Temperature/RH Smart Sensor (S-THB-M002)","Soil Moisture Smart Sensor - EC5 (S-SMC-M005)","2018-08-01T16:00:01",0.0,22.968,72.1,0.6496,17.7],
    [293,"AB07CD0350","WETLAND SAL01","SALINE (FEN)",56.573904,-111.277774,"HOBO Rain Gauge Data Logger - RG3","HOBO Temperature/RH Smart Sensor (S-THB-M002)","Soil Moisture Smart Sensor - EC5 (S-SMC-M005)","2018-08-01T17:00:01",0.0,23.521,64.2,0.6496,16.4],
    [294,"AB07CD0350","WETLAND SAL01","SALINE (FEN)",56.573904,-111.277774,"HOBO Rain Gauge Data Logger - RG3","HOBO Temperature/RH Smart Sensor (S-THB-M002)","Soil Moisture Smart Sensor - EC5 (S-SMC-M005)","2018-08-01T18:00:01",0.0,24.532,59.3,0.6503,16.1],
    [295,"AB07CD0350","WETLAND SAL01","SALINE (FEN)",56.573904,-111.277774,"HOBO Rain Gauge Data Logger - RG3","HOBO Temperature/RH Smart Sensor (S-THB-M002)","Soil Moisture Smart Sensor - EC5 (S-SMC-M005)","2018-08-01T19:00:01",0.0,24.267,58.0,0.6496,15.5],
    [296,"AB07CD0350","WETLAND SAL01","SALINE (FEN)",56.573904,-111.277774,"HOBO Rain Gauge Data Logger - RG3","HOBO Temperature/RH Smart Sensor (S-THB-M002)","Soil Moisture Smart Sensor - EC5 (S-SMC-M005)","2018-08-01T20:00:01",0.0,23.641,63.6,0.6496,16.4],
    [297,"AB07CD0350","WETLAND SAL01","SALINE (FEN)",56.573904,-111.277774,"HOBO Rain Gauge Data Logger - RG3","HOBO Temperature/RH Smart Sensor (S-THB-M002)","Soil Moisture Smart Sensor - EC5 (S-SMC-M005)","2018-08-01T21:00:01",0.0,21.056,63.8,0.6496,14.0],
    [298,"AB07CD0350","WETLAND SAL01","SALINE (FEN)",56.573904,-111.277774,"HOBO Rain Gauge Data Logger - RG3","HOBO Temperature/RH Smart Sensor (S-THB-M002)","Soil Moisture Smart Sensor - EC5 (S-SMC-M005)","2018-08-01T22:00:01",0.0,16.868,78.3,0.6503,13.1],
    [299,"AB07CD0350","WETLAND SAL01","SALINE (FEN)",56.573904,-111.277774,"HOBO Rain Gauge Data Logger - RG3","HOBO Temperature/RH Smart Sensor (S-THB-M002)","Soil Moisture Smart Sensor - EC5 (S-SMC-M005)","2018-08-01T23:00:01",0.0,17.249,86.1,0.6496,14.9],
    [300,"AB07CD0350","WETLAND SAL01","SALINE (FEN)",56.573904,-111.277774,"HOBO Rain Gauge Data Logger - RG3","HOBO Temperature/RH Smart Sensor (S-THB-M002)","Soil Moisture Smart Sensor - EC5 (S-SMC-M005)","2018-08-02T00:00:01",0.0,15.605,86.3,0.6496,13.3],
    [301,"AB07CD0350","WETLAND SAL01","SALINE (FEN)",56.573904,-111.277774,"HOBO Rain Gauge Data Logger - RG3","HOBO Temperature/RH Smart Sensor (S-THB-M002)","Soil Moisture Smart Sensor - EC5 (S-SMC-M005)","2018-08-02T01:00:01",0.0,13.666,92.4,0.6503,12.5],
    [302,"AB07CD0350","WETLAND SAL01","SALINE (FEN)",56.573904,-111.277774,"HOBO Rain Gauge Data Logger - RG3","HOBO Temperature/RH Smart Sensor (S-THB-M002)","Soil Moisture Smart Sensor - EC5 (S-SMC-M005)","2018-08-02T02:00:01",0.0,12.727,95.0,0.6503,12.0],
    [303,"AB07CD0350","WETLAND SAL01","SALINE (FEN)",56.573904,-111.277774,"HOBO Rain Gauge Data Logger - RG3","HOBO Temperature/RH Smart Sensor (S-THB-M002)","Soil Moisture Smart Sensor - EC5 (S-SMC-M005)","2018-08-02T03:00:01",0.0,11.297,96.3,0.6503,10.7],
    [304,"AB07CD0350","WETLAND SAL01","SALINE (FEN)",56.573904,-111.277774,"HOBO Rain Gauge Data Logger - RG3","HOBO Temperature/RH Smart Sensor (S-THB-M002)","Soil Moisture Smart Sensor - EC5 (S-SMC-M005)","2018-08-02T04:00:01",0.0,10.443,96.9,0.6503,10.0],
    [305,"AB07CD0350","WETLAND SAL01","SALINE (FEN)",56.573904,-111.277774,"HOBO Rain Gauge Data Logger - RG3","HOBO Temperature/RH Smart Sensor (S-THB-M002)","Soil Moisture Smart Sensor - EC5 (S-SMC-M005)","2018-08-02T05:00:01",0.0,10.026,97.4,0.6503,9.6],
    [306,"AB07CD0350","WETLAND SAL01","SALINE (FEN)",56.573904,-111.277774,"HOBO Rain Gauge Data Logger - RG3","HOBO Temperature/RH Smart Sensor (S-THB-M002)","Soil Moisture Smart Sensor - EC5 (S-SMC-M005)","2018-08-02T06:00:01",0.0,10.394,97.8,0.6503,10.1],
    [307,"AB07CD0350","WETLAND SAL01","SALINE (FEN)",56.573904,-111.277774,"HOBO Rain Gauge Data Logger - RG3","HOBO Temperature/RH Smart Sensor (S-THB-M002)","Soil Moisture Smart Sensor - EC5 (S-SMC-M005)","2018-08-02T07:00:01",0.0,15.127,96.9,0.6503,14.7],
    [308,"AB07CD0350","WETLAND SAL01","SALINE (FEN)",56.573904,-111.277774,"HOBO Rain Gauge Data Logger - RG3","HOBO Temperature/RH Smart Sensor (S-THB-M002)","Soil Moisture Smart Sensor - EC5 (S-SMC-M005)","2018-08-02T08:00:01",0.0,17.463,91.0,0.6503,16.0],
    [309,"AB07CD0350","WETLAND SAL01","SALINE (FEN)",56.573904,-111.277774,"HOBO Rain Gauge Data Logger - RG3","HOBO Temperature/RH Smart Sensor (S-THB-M002)","Soil Moisture Smart Sensor - EC5 (S-SMC-M005)","2018-08-02T09:00:01",0.0,20.269,83.7,0.6496,17.4],
    [310,"AB07CD0350","WETLAND SAL01","SALINE (FEN)",56.573904,-111.277774,"HOBO Rain Gauge Data Logger - RG3","HOBO Temperature/RH Smart Sensor (S-THB-M002)","Soil Moisture Smart Sensor - EC5 (S-SMC-M005)","2018-08-02T10:00:01",0.0,22.8,74.7,0.6503,18.1],
    [311,"AB07CD0350","WETLAND SAL01","SALINE (FEN)",56.573904,-111.277774,"HOBO Rain Gauge Data Logger - RG3","HOBO Temperature/RH Smart Sensor (S-THB-M002)","Soil Moisture Smart Sensor - EC5 (S-SMC-M005)","2018-08-02T11:00:01",0.0,24.629,64.7,0.6503,17.6],
    [312,"AB07CD0350","WETLAND SAL01","SALINE (FEN)",56.573904,-111.277774,"HOBO Rain Gauge Data Logger - RG3","HOBO Temperature/RH Smart Sensor (S-THB-M002)","Soil Moisture Smart Sensor - EC5 (S-SMC-M005)","2018-08-02T12:00:01",0.0,26.231,56.0,0.6496,16.8],
    [313,"AB07CD0350","WETLAND SAL01","SALINE (FEN)",56.573904,-111.277774,"HOBO Rain Gauge Data Logger - RG3","HOBO Temperature/RH Smart Sensor (S-THB-M002)","Soil Moisture Smart Sensor - EC5 (S-SMC-M005)","2018-08-02T13:00:01",0.0,26.353,48.8,0.6503,14.7],
    [314,"AB07CD0350","WETLAND SAL01","SALINE (FEN)",56.573904,-111.277774,"HOBO Rain Gauge Data Logger - RG3","HOBO Temperature/RH Smart Sensor (S-THB-M002)","Soil Moisture Smart Sensor - EC5 (S-SMC-M005)","2018-08-02T14:00:01",0.0,26.891,43.3,0.6496,13.4],
    [315,"AB07CD0350","WETLAND SAL01","SALINE (FEN)",56.573904,-111.277774,"HOBO Rain Gauge Data Logger - RG3","HOBO Temperature/RH Smart Sensor (S-THB-M002)","Soil Moisture Smart Sensor - EC5 (S-SMC-M005)","2018-08-02T15:00:01",0.0,22.561,55.2,0.6496,13.1],
    [316,"AB07CD0350","WETLAND SAL01","SALINE (FEN)",56.573904,-111.277774,"HOBO Rain Gauge Data Logger - RG3","HOBO Temperature/RH Smart Sensor (S-THB-M002)","Soil Moisture Smart Sensor - EC5 (S-SMC-M005)","2018-08-02T16:00:01",0.0,21.843,61.8,0.6496,14.2],
    [317,"AB07CD0350","WETLAND SAL01","SALINE (FEN)",56.573904,-111.277774,"HOBO Rain Gauge Data Logger - RG3","HOBO Temperature/RH Smart Sensor (S-THB-M002)","Soil Moisture Smart Sensor - EC5 (S-SMC-M005)","2018-08-02T17:00:01",0.0,22.298,62.9,0.6496,14.9],
    [318,"AB07CD0350","WETLAND SAL01","SALINE (FEN)",56.573904,-111.277774,"HOBO Rain Gauge Data Logger - RG3","HOBO Temperature/RH Smart Sensor (S-THB-M002)","Soil Moisture Smart Sensor - EC5 (S-SMC-M005)","2018-08-02T18:00:01",0.0,22.178,60.8,0.6496,14.3],
    [319,"AB07CD0350","WETLAND SAL01","SALINE (FEN)",56.573904,-111.277774,"HOBO Rain Gauge Data Logger - RG3","HOBO Temperature/RH Smart Sensor (S-THB-M002)","Soil Moisture Smart Sensor - EC5 (S-SMC-M005)","2018-08-02T19:00:01",0.0,23.232,60.6,0.6496,15.2],
    [320,"AB07CD0350","WETLAND SAL01","SALINE (FEN)",56.573904,-111.277774,"HOBO Rain Gauge Data Logger - RG3","HOBO Temperature/RH Smart Sensor (S-THB-M002)","Soil Moisture Smart Sensor - EC5 (S-SMC-M005)","2018-08-02T20:00:01",0.0,22.729,57.1,0.6496,13.8],
    [321,"AB07CD0350","WETLAND SAL01","SALINE (FEN)",56.573904,-111.277774,"HOBO Rain Gauge Data Logger - RG3","HOBO Temperature/RH Smart Sensor (S-THB-M002)","Soil Moisture Smart Sensor - EC5 (S-SMC-M005)","2018-08-02T21:00:01",0.0,20.698,59.6,0.6503,12.6],
    [322,"AB07CD0350","WETLAND SAL01","SALINE (FEN)",56.573904,-111.277774,"HOBO Rain Gauge Data Logger - RG3","HOBO Temperature/RH Smart Sensor (S-THB-M002)","Soil Moisture Smart Sensor - EC5 (S-SMC-M005)","2018-08-02T22:00:01",0.0,15.533,74.5,0.6503,11.0],
    [323,"AB07CD0350","WETLAND SAL01","SALINE (FEN)",56.573904,-111.277774,"HOBO Rain Gauge Data Logger - RG3","HOBO Temperature/RH Smart Sensor (S-THB-M002)","Soil Moisture Smart Sensor - EC5 (S-SMC-M005)","2018-08-02T23:00:01",0.0,13.546,86.0,0.6503,11.3],
    [324,"AB07CD0350","WETLAND SAL01","SALINE (FEN)",56.573904,-111.277774,"HOBO Rain Gauge Data Logger - RG3","HOBO Temperature/RH Smart Sensor (S-THB-M002)","Soil Moisture Smart Sensor - EC5 (S-SMC-M005)","2018-08-03T00:00:01",0.0,13.786,89.6,0.6503,12.1],
    [325,"AB07CD0350","WETLAND SAL01","SALINE (FEN)",56.573904,-111.277774,"HOBO Rain Gauge Data Logger - RG3","HOBO Temperature/RH Smart Sensor (S-THB-M002)","Soil Moisture Smart Sensor - EC5 (S-SMC-M005)","2018-08-03T01:00:01",0.0,11.783,91.4,0.6503,10.4],
    [326,"AB07CD0350","WETLAND SAL01","SALINE (FEN)",56.573904,-111.277774,"HOBO Rain Gauge Data Logger - RG3","HOBO Temperature/RH Smart Sensor (S-THB-M002)","Soil Moisture Smart Sensor - EC5 (S-SMC-M005)","2018-08-03T02:00:01",0.0,11.005,94.6,0.6503,10.2],
    [327,"AB07CD0350","WETLAND SAL01","SALINE (FEN)",56.573904,-111.277774,"HOBO Rain Gauge Data Logger - RG3","HOBO Temperature/RH Smart Sensor (S-THB-M002)","Soil Moisture Smart Sensor - EC5 (S-SMC-M005)","2018-08-03T03:00:01",0.0,9.756,95.8,0.6503,9.1],
    [328,"AB07CD0350","WETLAND SAL01","SALINE (FEN)",56.573904,-111.277774,"HOBO Rain Gauge Data Logger - RG3","HOBO Temperature/RH Smart Sensor (S-THB-M002)","Soil Moisture Smart Sensor - EC5 (S-SMC-M005)","2018-08-03T04:00:01",0.0,8.965,96.5,0.6503,8.4],
    [329,"AB07CD0350","WETLAND SAL01","SALINE (FEN)",56.573904,-111.277774,"HOBO Rain Gauge Data Logger - RG3","HOBO Temperature/RH Smart Sensor (S-THB-M002)","Soil Moisture Smart Sensor - EC5 (S-SMC-M005)","2018-08-03T05:00:01",0.0,8.841,97.1,0.6503,8.4],
    [330,"AB07CD0350","WETLAND SAL01","SALINE (FEN)",56.573904,-111.277774,"HOBO Rain Gauge Data Logger - RG3","HOBO Temperature/RH Smart Sensor (S-THB-M002)","Soil Moisture Smart Sensor - EC5 (S-SMC-M005)","2018-08-03T06:00:01",0.0,8.717,97.5,0.6503,8.4],
    [331,"AB07CD0350","WETLAND SAL01","SALINE (FEN)",56.573904,-111.277774,"HOBO Rain Gauge Data Logger - RG3","HOBO Temperature/RH Smart Sensor (S-THB-M002)","Soil Moisture Smart Sensor - EC5 (S-SMC-M005)","2018-08-03T07:00:01",0.0,12.799,96.6,0.6503,12.3],
    [332,"AB07CD0350","WETLAND SAL01","SALINE (FEN)",56.573904,-111.277774,"HOBO Rain Gauge Data Logger - RG3","HOBO Temperature/RH Smart Sensor (S-THB-M002)","Soil Moisture Smart Sensor - EC5 (S-SMC-M005)","2018-08-03T08:00:01",0.0,16.796,92.9,0.6503,15.7],
    [333,"AB07CD0350","WETLAND SAL01","SALINE (FEN)",56.573904,-111.277774,"HOBO Rain Gauge Data Logger - RG3","HOBO Temperature/RH Smart Sensor (S-THB-M002)","Soil Moisture Smart Sensor - EC5 (S-SMC-M005)","2018-08-03T09:00:01",0.0,20.079,81.6,0.6503,16.9],
    [334,"AB07CD0350","WETLAND SAL01","SALINE (FEN)",56.573904,-111.277774,"HOBO Rain Gauge Data Logger - RG3","HOBO Temperature/RH Smart Sensor (S-THB-M002)","Soil Moisture Smart Sensor - EC5 (S-SMC-M005)","2018-08-03T10:00:01",0.0,22.034,71.0,0.6503,16.6],
    [335,"AB07CD0350","WETLAND SAL01","SALINE (FEN)",56.573904,-111.277774,"HOBO Rain Gauge Data Logger - RG3","HOBO Temperature/RH Smart Sensor (S-THB-M002)","Soil Moisture Smart Sensor - EC5 (S-SMC-M005)","2018-08-03T11:00:01",0.0,23.617,63.1,0.6503,16.2],
    [336,"AB07CD0350","WETLAND SAL01","SALINE (FEN)",56.573904,-111.277774,"HOBO Rain Gauge Data Logger - RG3","HOBO Temperature/RH Smart Sensor (S-THB-M002)","Soil Moisture Smart Sensor - EC5 (S-SMC-M005)","2018-08-03T12:00:01",0.0,24.002,57.4,0.6496,15.1],
    [337,"AB07CD0350","WETLAND SAL01","SALINE (FEN)",56.573904,-111.277774,"HOBO Rain Gauge Data Logger - RG3","HOBO Temperature/RH Smart Sensor (S-THB-M002)","Soil Moisture Smart Sensor - EC5 (S-SMC-M005)","2018-08-03T13:00:01",0.0,25.477,55.1,0.6503,15.8],
    [338,"AB07CD0350","WETLAND SAL01","SALINE (FEN)",56.573904,-111.277774,"HOBO Rain Gauge Data Logger - RG3","HOBO Temperature/RH Smart Sensor (S-THB-M002)","Soil Moisture Smart Sensor - EC5 (S-SMC-M005)","2018-08-03T14:00:01",0.0,26.378,52.1,0.6503,15.8],
    [339,"AB07CD0350","WETLAND SAL01","SALINE (FEN)",56.573904,-111.277774,"HOBO Rain Gauge Data Logger - RG3","HOBO Temperature/RH Smart Sensor (S-THB-M002)","Soil Moisture Smart Sensor - EC5 (S-SMC-M005)","2018-08-03T15:00:01",0.0,26.965,47.2,0.6496,14.8],
    [340,"AB07CD0350","WETLAND SAL01","SALINE (FEN)",56.573904,-111.277774,"HOBO Rain Gauge Data Logger - RG3","HOBO Temperature/RH Smart Sensor (S-THB-M002)","Soil Moisture Smart Sensor - EC5 (S-SMC-M005)","2018-08-03T16:00:01",0.0,26.793,46.7,0.6503,14.5],
    [341,"AB07CD0350","WETLAND SAL01","SALINE (FEN)",56.573904,-111.277774,"HOBO Rain Gauge Data Logger - RG3","HOBO Temperature/RH Smart Sensor (S-THB-M002)","Soil Moisture Smart Sensor - EC5 (S-SMC-M005)","2018-08-03T17:00:01",0.0,27.235,44.8,0.6503,14.2],
    [342,"AB07CD0350","WETLAND SAL01","SALINE (FEN)",56.573904,-111.277774,"HOBO Rain Gauge Data Logger - RG3","HOBO Temperature/RH Smart Sensor (S-THB-M002)","Soil Moisture Smart Sensor - EC5 (S-SMC-M005)","2018-08-03T18:00:01",0.0,27.186,43.4,0.6503,13.7],
    [343,"AB07CD0350","WETLAND SAL01","SALINE (FEN)",56.573904,-111.277774,"HOBO Rain Gauge Data Logger - RG3","HOBO Temperature/RH Smart Sensor (S-THB-M002)","Soil Moisture Smart Sensor - EC5 (S-SMC-M005)","2018-08-03T19:00:01",0.0,23.256,48.7,0.6503,11.9],
    [344,"AB07CD0350","WETLAND SAL01","SALINE (FEN)",56.573904,-111.277774,"HOBO Rain Gauge Data Logger - RG3","HOBO Temperature/RH Smart Sensor (S-THB-M002)","Soil Moisture Smart Sensor - EC5 (S-SMC-M005)","2018-08-03T20:00:01",0.0,21.7,64.9,0.6503,14.8],
    [345,"AB07CD0350","WETLAND SAL01","SALINE (FEN)",56.573904,-111.277774,"HOBO Rain Gauge Data Logger - RG3","HOBO Temperature/RH Smart Sensor (S-THB-M002)","Soil Moisture Smart Sensor - EC5 (S-SMC-M005)","2018-08-03T21:00:01",0.0,20.222,70.0,0.6503,14.6],
    [346,"AB07CD0350","WETLAND SAL01","SALINE (FEN)",56.573904,-111.277774,"HOBO Rain Gauge Data Logger - RG3","HOBO Temperature/RH Smart Sensor (S-THB-M002)","Soil Moisture Smart Sensor - EC5 (S-SMC-M005)","2018-08-03T22:00:01",0.0,17.962,74.3,0.6503,13.3],
    [347,"AB07CD0350","WETLAND SAL01","SALINE (FEN)",56.573904,-111.277774,"HOBO Rain Gauge Data Logger - RG3","HOBO Temperature/RH Smart Sensor (S-THB-M002)","Soil Moisture Smart Sensor - EC5 (S-SMC-M005)","2018-08-03T23:00:01",0.0,16.582,81.5,0.6503,13.4],
    [348,"AB07CD0350","WETLAND SAL01","SALINE (FEN)",56.573904,-111.277774,"HOBO Rain Gauge Data Logger - RG3","HOBO Temperature/RH Smart Sensor (S-THB-M002)","Soil Moisture Smart Sensor - EC5 (S-SMC-M005)","2018-08-04T00:00:01",0.0,15.843,86.9,0.6503,13.7],
    [349,"AB07CD0350","WETLAND SAL01","SALINE (FEN)",56.573904,-111.277774,"HOBO Rain Gauge Data Logger - RG3","HOBO Temperature/RH Smart Sensor (S-THB-M002)","Soil Moisture Smart Sensor - EC5 (S-SMC-M005)","2018-08-04T01:00:01",0.0,18.818,88.8,0.6503,17.0],
    [350,"AB07CD0350","WETLAND SAL01","SALINE (FEN)",56.573904,-111.277774,"HOBO Rain Gauge Data Logger - RG3","HOBO Temperature/RH Smart Sensor (S-THB-M002)","Soil Moisture Smart Sensor - EC5 (S-SMC-M005)","2018-08-04T02:00:01",0.0,19.151,86.3,0.6503,16.8],
    [351,"AB07CD0350","WETLAND SAL01","SALINE (FEN)",56.573904,-111.277774,"HOBO Rain Gauge Data Logger - RG3","HOBO Temperature/RH Smart Sensor (S-THB-M002)","Soil Moisture Smart Sensor - EC5 (S-SMC-M005)","2018-08-04T03:00:01",0.0,18.58,84.8,0.6503,16.0],
    [352,"AB07CD0350","WETLAND SAL01","SALINE (FEN)",56.573904,-111.277774,"HOBO Rain Gauge Data Logger - RG3","HOBO Temperature/RH Smart Sensor (S-THB-M002)","Soil Moisture Smart Sensor - EC5 (S-SMC-M005)","2018-08-04T04:00:01",0.0,17.629,85.5,0.6511,15.2],
    [353,"AB07CD0350","WETLAND SAL01","SALINE (FEN)",56.573904,-111.277774,"HOBO Rain Gauge Data Logger - RG3","HOBO Temperature/RH Smart Sensor (S-THB-M002)","Soil Moisture Smart Sensor - EC5 (S-SMC-M005)","2018-08-04T05:00:01",0.0,16.963,86.1,0.6503,14.6],
    [354,"AB07CD0350","WETLAND SAL01","SALINE (FEN)",56.573904,-111.277774,"HOBO Rain Gauge Data Logger - RG3","HOBO Temperature/RH Smart Sensor (S-THB-M002)","Soil Moisture Smart Sensor - EC5 (S-SMC-M005)","2018-08-04T06:00:01",0.0,16.558,85.0,0.6511,14.0],
    [355,"AB07CD0350","WETLAND SAL01","SALINE (FEN)",56.573904,-111.277774,"HOBO Rain Gauge Data Logger - RG3","HOBO Temperature/RH Smart Sensor (S-THB-M002)","Soil Moisture Smart Sensor - EC5 (S-SMC-M005)","2018-08-04T07:00:01",0.0,16.153,85.0,0.6503,13.6],
    [356,"AB07CD0350","WETLAND SAL01","SALINE (FEN)",56.573904,-111.277774,"HOBO Rain Gauge Data Logger - RG3","HOBO Temperature/RH Smart Sensor (S-THB-M002)","Soil Moisture Smart Sensor - EC5 (S-SMC-M005)","2018-08-04T08:00:01",0.0,16.058,85.1,0.6503,13.6],
    [357,"AB07CD0350","WETLAND SAL01","SALINE (FEN)",56.573904,-111.277774,"HOBO Rain Gauge Data Logger - RG3","HOBO Temperature/RH Smart Sensor (S-THB-M002)","Soil Moisture Smart Sensor - EC5 (S-SMC-M005)","2018-08-04T09:00:01",0.0,16.606,82.9,0.6503,13.7],
    [358,"AB07CD0350","WETLAND SAL01","SALINE (FEN)",56.573904,-111.277774,"HOBO Rain Gauge Data Logger - RG3","HOBO Temperature/RH Smart Sensor (S-THB-M002)","Soil Moisture Smart Sensor - EC5 (S-SMC-M005)","2018-08-04T10:00:01",0.0,16.058,83.5,0.6503,13.3],
    [359,"AB07CD0350","WETLAND SAL01","SALINE (FEN)",56.573904,-111.277774,"HOBO Rain Gauge Data Logger - RG3","HOBO Temperature/RH Smart Sensor (S-THB-M002)","Soil Moisture Smart Sensor - EC5 (S-SMC-M005)","2018-08-04T11:00:01",0.0,18.842,76.1,0.6503,14.6],
    [360,"AB07CD0350","WETLAND SAL01","SALINE (FEN)",56.573904,-111.277774,"HOBO Rain Gauge Data Logger - RG3","HOBO Temperature/RH Smart Sensor (S-THB-M002)","Soil Moisture Smart Sensor - EC5 (S-SMC-M005)","2018-08-04T12:00:01",0.0,19.222,70.4,0.6511,13.7],
    [361,"AB07CD0350","WETLAND SAL01","SALINE (FEN)",56.573904,-111.277774,"HOBO Rain Gauge Data Logger - RG3","HOBO Temperature/RH Smart Sensor (S-THB-M002)","Soil Moisture Smart Sensor - EC5 (S-SMC-M005)","2018-08-04T13:00:01",0.0,19.603,64.4,0.6503,12.7],
    [362,"AB07CD0350","WETLAND SAL01","SALINE (FEN)",56.573904,-111.277774,"HOBO Rain Gauge Data Logger - RG3","HOBO Temperature/RH Smart Sensor (S-THB-M002)","Soil Moisture Smart Sensor - EC5 (S-SMC-M005)","2018-08-04T14:00:01",0.0,18.723,64.2,0.6503,11.8],
    [363,"AB07CD0350","WETLAND SAL01","SALINE (FEN)",56.573904,-111.277774,"HOBO Rain Gauge Data Logger - RG3","HOBO Temperature/RH Smart Sensor (S-THB-M002)","Soil Moisture Smart Sensor - EC5 (S-SMC-M005)","2018-08-04T15:00:01",0.0,20.555,57.8,0.6503,12.0],
    [364,"AB07CD0350","WETLAND SAL01","SALINE (FEN)",56.573904,-111.277774,"HOBO Rain Gauge Data Logger - RG3","HOBO Temperature/RH Smart Sensor (S-THB-M002)","Soil Moisture Smart Sensor - EC5 (S-SMC-M005)","2018-08-04T16:00:01",0.0,20.222,57.5,0.6511,11.6],
    [365,"AB07CD0350","WETLAND SAL01","SALINE (FEN)",56.573904,-111.277774,"HOBO Rain Gauge Data Logger - RG3","HOBO Temperature/RH Smart Sensor (S-THB-M002)","Soil Moisture Smart Sensor - EC5 (S-SMC-M005)","2018-08-04T17:00:01",0.0,20.079,57.6,0.6511,11.5],
    [366,"AB07CD0350","WETLAND SAL01","SALINE (FEN)",56.573904,-111.277774,"HOBO Rain Gauge Data Logger - RG3","HOBO Temperature/RH Smart Sensor (S-THB-M002)","Soil Moisture Smart Sensor - EC5 (S-SMC-M005)","2018-08-04T18:00:01",0.0,20.65,54.9,0.6511,11.3],
    [367,"AB07CD0350","WETLAND SAL01","SALINE (FEN)",56.573904,-111.277774,"HOBO Rain Gauge Data Logger - RG3","HOBO Temperature/RH Smart Sensor (S-THB-M002)","Soil Moisture Smart Sensor - EC5 (S-SMC-M005)","2018-08-04T19:00:01",0.0,20.079,53.7,0.6511,10.4],
    [368,"AB07CD0350","WETLAND SAL01","SALINE (FEN)",56.573904,-111.277774,"HOBO Rain Gauge Data Logger - RG3","HOBO Temperature/RH Smart Sensor (S-THB-M002)","Soil Moisture Smart Sensor - EC5 (S-SMC-M005)","2018-08-04T20:00:01",0.0,19.698,52.5,0.6511,9.7],
    [369,"AB07CD0350","WETLAND SAL01","SALINE (FEN)",56.573904,-111.277774,"HOBO Rain Gauge Data Logger - RG3","HOBO Temperature/RH Smart Sensor (S-THB-M002)","Soil Moisture Smart Sensor - EC5 (S-SMC-M005)","2018-08-04T21:00:01",0.0,17.748,54.4,0.6511,8.4],
    [370,"AB07CD0350","WETLAND SAL01","SALINE (FEN)",56.573904,-111.277774,"HOBO Rain Gauge Data Logger - RG3","HOBO Temperature/RH Smart Sensor (S-THB-M002)","Soil Moisture Smart Sensor - EC5 (S-SMC-M005)","2018-08-04T22:00:01",0.0,15.294,67.7,0.6511,9.4],
    [371,"AB07CD0350","WETLAND SAL01","SALINE (FEN)",56.573904,-111.277774,"HOBO Rain Gauge Data Logger - RG3","HOBO Temperature/RH Smart Sensor (S-THB-M002)","Soil Moisture Smart Sensor - EC5 (S-SMC-M005)","2018-08-04T23:00:01",0.0,12.534,63.8,0.6503,5.9]
]}
